<?xml version="1.0" encoding="UTF-8" standalone="no" ?>
<gpx xmlns="http://www.topografix.com/GPX/1/1" xmlns:xsi="http://www.w3.org/2001/XMLSchema-instance" xsi:schemaLocation="http://www.topografix.com/GPX/1/1 http://www.topografix.com/GPX/1/1/gpx.xsd" version="1.1" creator="VisuGPX - https://www.visugpx.com">
  <metadata>
    <name>Gelos/Mazères</name>
    <desc><![CDATA[Pratiquement à partir du centre de l%u2019agglomération de Pau, une superbe balade le long du gave de Pau sur des sentiers larges, puis une belle côte au milieu des bois sur un chemin goudronné, mais peu fréquenté. Pour les Palois sans voiture, à faire absolument.]]></desc>
  </metadata>
  <trk>
    <name><![CDATA[Tracé actuel: 10 JUIL 2012 13:47]]></name>
    <trkseg>
      <trkpt lat="43.28988" lon="-0.3839">
        <ele>170.77</ele>
        <time>2012-07-10T11:47:56Z</time>
      </trkpt>
      <trkpt lat="43.28996" lon="-0.38374">
        <ele>177.98</ele>
        <time>2012-07-10T11:48:16Z</time>
      </trkpt>
      <trkpt lat="43.29001" lon="-0.38361">
        <ele>177.98</ele>
        <time>2012-07-10T11:48:24Z</time>
      </trkpt>
      <trkpt lat="43.29008" lon="-0.38348">
        <ele>177.98</ele>
        <time>2012-07-10T11:49:10Z</time>
      </trkpt>
      <trkpt lat="43.29024" lon="-0.38325">
        <ele>177.5</ele>
        <time>2012-07-10T11:49:40Z</time>
      </trkpt>
      <trkpt lat="43.2903" lon="-0.38315">
        <ele>177.5</ele>
        <time>2012-07-10T11:49:48Z</time>
      </trkpt>
      <trkpt lat="43.29031" lon="-0.38304">
        <ele>177.02</ele>
        <time>2012-07-10T11:49:57Z</time>
      </trkpt>
      <trkpt lat="43.29031" lon="-0.38288">
        <ele>177.02</ele>
        <time>2012-07-10T11:50:07Z</time>
      </trkpt>
      <trkpt lat="43.29029" lon="-0.38276">
        <ele>177.02</ele>
        <time>2012-07-10T11:50:19Z</time>
      </trkpt>
      <trkpt lat="43.29021" lon="-0.38269">
        <ele>177.02</ele>
        <time>2012-07-10T11:50:30Z</time>
      </trkpt>
      <trkpt lat="43.2901" lon="-0.38247">
        <ele>177.02</ele>
        <time>2012-07-10T11:50:48Z</time>
      </trkpt>
      <trkpt lat="43.29001" lon="-0.38244">
        <ele>177.5</ele>
        <time>2012-07-10T11:51:02Z</time>
      </trkpt>
      <trkpt lat="43.28994" lon="-0.38235">
        <ele>177.5</ele>
        <time>2012-07-10T11:51:11Z</time>
      </trkpt>
      <trkpt lat="43.28992" lon="-0.38227">
        <ele>177.5</ele>
        <time>2012-07-10T11:51:20Z</time>
      </trkpt>
      <trkpt lat="43.28992" lon="-0.38214">
        <ele>177.5</ele>
        <time>2012-07-10T11:51:28Z</time>
      </trkpt>
      <trkpt lat="43.28991" lon="-0.38199">
        <ele>177.5</ele>
        <time>2012-07-10T11:51:36Z</time>
      </trkpt>
      <trkpt lat="43.28986" lon="-0.38185">
        <ele>177.02</ele>
        <time>2012-07-10T11:51:44Z</time>
      </trkpt>
      <trkpt lat="43.28976" lon="-0.38177">
        <ele>177.5</ele>
        <time>2012-07-10T11:51:54Z</time>
      </trkpt>
      <trkpt lat="43.28967" lon="-0.38177">
        <ele>177.5</ele>
        <time>2012-07-10T11:52:04Z</time>
      </trkpt>
      <trkpt lat="43.28957" lon="-0.38178">
        <ele>177.02</ele>
        <time>2012-07-10T11:52:13Z</time>
      </trkpt>
      <trkpt lat="43.28946" lon="-0.38171">
        <ele>177.5</ele>
        <time>2012-07-10T11:52:22Z</time>
      </trkpt>
      <trkpt lat="43.28942" lon="-0.38149">
        <ele>177.5</ele>
        <time>2012-07-10T11:52:31Z</time>
      </trkpt>
      <trkpt lat="43.28938" lon="-0.38131">
        <ele>177.5</ele>
        <time>2012-07-10T11:52:40Z</time>
      </trkpt>
      <trkpt lat="43.28929" lon="-0.38125">
        <ele>177.02</ele>
        <time>2012-07-10T11:52:50Z</time>
      </trkpt>
      <trkpt lat="43.28918" lon="-0.38108">
        <ele>177.5</ele>
        <time>2012-07-10T11:53:05Z</time>
      </trkpt>
      <trkpt lat="43.28909" lon="-0.38103">
        <ele>177.5</ele>
        <time>2012-07-10T11:53:19Z</time>
      </trkpt>
      <trkpt lat="43.28901" lon="-0.38099">
        <ele>177.5</ele>
        <time>2012-07-10T11:53:29Z</time>
      </trkpt>
      <trkpt lat="43.28897" lon="-0.38087">
        <ele>177.02</ele>
        <time>2012-07-10T11:53:39Z</time>
      </trkpt>
      <trkpt lat="43.2889" lon="-0.38077">
        <ele>177.5</ele>
        <time>2012-07-10T11:53:49Z</time>
      </trkpt>
      <trkpt lat="43.28885" lon="-0.38066">
        <ele>177.5</ele>
        <time>2012-07-10T11:53:59Z</time>
      </trkpt>
      <trkpt lat="43.28882" lon="-0.38053">
        <ele>177.98</ele>
        <time>2012-07-10T11:54:09Z</time>
      </trkpt>
      <trkpt lat="43.28875" lon="-0.38045">
        <ele>177.5</ele>
        <time>2012-07-10T11:54:18Z</time>
      </trkpt>
      <trkpt lat="43.28869" lon="-0.38035">
        <ele>177.5</ele>
        <time>2012-07-10T11:54:28Z</time>
      </trkpt>
      <trkpt lat="43.28862" lon="-0.38022">
        <ele>177.5</ele>
        <time>2012-07-10T11:54:38Z</time>
      </trkpt>
      <trkpt lat="43.28848" lon="-0.38007">
        <ele>177.5</ele>
        <time>2012-07-10T11:55:58Z</time>
      </trkpt>
      <trkpt lat="43.28852" lon="-0.37996">
        <ele>177.5</ele>
        <time>2012-07-10T11:56:15Z</time>
      </trkpt>
      <trkpt lat="43.28863" lon="-0.37993">
        <ele>177.02</ele>
        <time>2012-07-10T11:56:26Z</time>
      </trkpt>
      <trkpt lat="43.28875" lon="-0.37995">
        <ele>176.54</ele>
        <time>2012-07-10T11:56:37Z</time>
      </trkpt>
      <trkpt lat="43.28882" lon="-0.37986">
        <ele>177.02</ele>
        <time>2012-07-10T11:56:44Z</time>
      </trkpt>
      <trkpt lat="43.28894" lon="-0.37979">
        <ele>176.54</ele>
        <time>2012-07-10T11:56:53Z</time>
      </trkpt>
      <trkpt lat="43.28905" lon="-0.37975">
        <ele>177.02</ele>
        <time>2012-07-10T11:57:02Z</time>
      </trkpt>
      <trkpt lat="43.28911" lon="-0.37968">
        <ele>176.54</ele>
        <time>2012-07-10T11:57:23Z</time>
      </trkpt>
      <trkpt lat="43.28921" lon="-0.37966">
        <ele>177.02</ele>
        <time>2012-07-10T11:57:31Z</time>
      </trkpt>
      <trkpt lat="43.28939" lon="-0.37957">
        <ele>176.54</ele>
        <time>2012-07-10T11:57:42Z</time>
      </trkpt>
      <trkpt lat="43.28948" lon="-0.37951">
        <ele>176.54</ele>
        <time>2012-07-10T11:57:54Z</time>
      </trkpt>
      <trkpt lat="43.28957" lon="-0.37948">
        <ele>177.02</ele>
        <time>2012-07-10T11:58:06Z</time>
      </trkpt>
      <trkpt lat="43.28958" lon="-0.3793">
        <ele>176.54</ele>
        <time>2012-07-10T11:58:16Z</time>
      </trkpt>
      <trkpt lat="43.28959" lon="-0.37911">
        <ele>176.54</ele>
        <time>2012-07-10T11:58:26Z</time>
      </trkpt>
      <trkpt lat="43.28957" lon="-0.37899">
        <ele>176.54</ele>
        <time>2012-07-10T11:58:35Z</time>
      </trkpt>
      <trkpt lat="43.28953" lon="-0.37883">
        <ele>177.02</ele>
        <time>2012-07-10T11:58:44Z</time>
      </trkpt>
      <trkpt lat="43.2895" lon="-0.37869">
        <ele>176.54</ele>
        <time>2012-07-10T11:58:54Z</time>
      </trkpt>
      <trkpt lat="43.28947" lon="-0.37855">
        <ele>176.06</ele>
        <time>2012-07-10T11:59:03Z</time>
      </trkpt>
      <trkpt lat="43.28947" lon="-0.3784">
        <ele>176.06</ele>
        <time>2012-07-10T11:59:12Z</time>
      </trkpt>
      <trkpt lat="43.28949" lon="-0.3783">
        <ele>175.58</ele>
        <time>2012-07-10T11:59:24Z</time>
      </trkpt>
      <trkpt lat="43.2896" lon="-0.37832">
        <ele>175.58</ele>
        <time>2012-07-10T11:59:35Z</time>
      </trkpt>
      <trkpt lat="43.28971" lon="-0.37828">
        <ele>176.06</ele>
        <time>2012-07-10T11:59:45Z</time>
      </trkpt>
      <trkpt lat="43.2898" lon="-0.37823">
        <ele>175.58</ele>
        <time>2012-07-10T11:59:55Z</time>
      </trkpt>
      <trkpt lat="43.28988" lon="-0.37817">
        <ele>176.06</ele>
        <time>2012-07-10T12:00:07Z</time>
      </trkpt>
      <trkpt lat="43.28989" lon="-0.37806">
        <ele>176.06</ele>
        <time>2012-07-10T12:00:18Z</time>
      </trkpt>
      <trkpt lat="43.28987" lon="-0.37794">
        <ele>176.06</ele>
        <time>2012-07-10T12:00:31Z</time>
      </trkpt>
      <trkpt lat="43.28978" lon="-0.3779">
        <ele>176.06</ele>
        <time>2012-07-10T12:00:38Z</time>
      </trkpt>
      <trkpt lat="43.28963" lon="-0.37787">
        <ele>175.58</ele>
        <time>2012-07-10T12:00:48Z</time>
      </trkpt>
      <trkpt lat="43.28955" lon="-0.3778">
        <ele>176.06</ele>
        <time>2012-07-10T12:00:57Z</time>
      </trkpt>
      <trkpt lat="43.28948" lon="-0.37776">
        <ele>175.58</ele>
        <time>2012-07-10T12:01:10Z</time>
      </trkpt>
      <trkpt lat="43.28941" lon="-0.37768">
        <ele>176.06</ele>
        <time>2012-07-10T12:01:23Z</time>
      </trkpt>
      <trkpt lat="43.28934" lon="-0.37762">
        <ele>176.06</ele>
        <time>2012-07-10T12:01:33Z</time>
      </trkpt>
      <trkpt lat="43.28927" lon="-0.37753">
        <ele>176.54</ele>
        <time>2012-07-10T12:01:41Z</time>
      </trkpt>
      <trkpt lat="43.2892" lon="-0.37744">
        <ele>176.06</ele>
        <time>2012-07-10T12:01:54Z</time>
      </trkpt>
      <trkpt lat="43.28912" lon="-0.37732">
        <ele>175.58</ele>
        <time>2012-07-10T12:02:10Z</time>
      </trkpt>
      <trkpt lat="43.289" lon="-0.37724">
        <ele>175.58</ele>
        <time>2012-07-10T12:02:19Z</time>
      </trkpt>
      <trkpt lat="43.28892" lon="-0.37716">
        <ele>175.58</ele>
        <time>2012-07-10T12:02:29Z</time>
      </trkpt>
      <trkpt lat="43.28883" lon="-0.37704">
        <ele>175.58</ele>
        <time>2012-07-10T12:02:40Z</time>
      </trkpt>
      <trkpt lat="43.28875" lon="-0.37693">
        <ele>175.58</ele>
        <time>2012-07-10T12:02:49Z</time>
      </trkpt>
      <trkpt lat="43.28868" lon="-0.37683">
        <ele>176.06</ele>
        <time>2012-07-10T12:02:56Z</time>
      </trkpt>
      <trkpt lat="43.28863" lon="-0.37674">
        <ele>176.06</ele>
        <time>2012-07-10T12:03:07Z</time>
      </trkpt>
      <trkpt lat="43.28857" lon="-0.37663">
        <ele>176.06</ele>
        <time>2012-07-10T12:03:19Z</time>
      </trkpt>
      <trkpt lat="43.28848" lon="-0.37654">
        <ele>176.06</ele>
        <time>2012-07-10T12:03:28Z</time>
      </trkpt>
      <trkpt lat="43.28843" lon="-0.37645">
        <ele>175.58</ele>
        <time>2012-07-10T12:03:39Z</time>
      </trkpt>
      <trkpt lat="43.28849" lon="-0.37635">
        <ele>175.1</ele>
        <time>2012-07-10T12:03:49Z</time>
      </trkpt>
      <trkpt lat="43.28857" lon="-0.37627">
        <ele>174.62</ele>
        <time>2012-07-10T12:03:59Z</time>
      </trkpt>
      <trkpt lat="43.28863" lon="-0.37616">
        <ele>173.66</ele>
        <time>2012-07-10T12:04:10Z</time>
      </trkpt>
      <trkpt lat="43.2887" lon="-0.37605">
        <ele>174.14</ele>
        <time>2012-07-10T12:04:21Z</time>
      </trkpt>
      <trkpt lat="43.28876" lon="-0.37595">
        <ele>174.14</ele>
        <time>2012-07-10T12:04:31Z</time>
      </trkpt>
      <trkpt lat="43.28882" lon="-0.37585">
        <ele>174.14</ele>
        <time>2012-07-10T12:04:41Z</time>
      </trkpt>
      <trkpt lat="43.28889" lon="-0.37576">
        <ele>174.14</ele>
        <time>2012-07-10T12:04:50Z</time>
      </trkpt>
      <trkpt lat="43.28897" lon="-0.37568">
        <ele>173.66</ele>
        <time>2012-07-10T12:04:58Z</time>
      </trkpt>
      <trkpt lat="43.28907" lon="-0.37558">
        <ele>174.14</ele>
        <time>2012-07-10T12:05:10Z</time>
      </trkpt>
      <trkpt lat="43.28913" lon="-0.37547">
        <ele>174.14</ele>
        <time>2012-07-10T12:05:20Z</time>
      </trkpt>
      <trkpt lat="43.28919" lon="-0.37538">
        <ele>173.66</ele>
        <time>2012-07-10T12:05:31Z</time>
      </trkpt>
      <trkpt lat="43.28923" lon="-0.37527">
        <ele>173.17</ele>
        <time>2012-07-10T12:05:40Z</time>
      </trkpt>
      <trkpt lat="43.28927" lon="-0.37513">
        <ele>173.66</ele>
        <time>2012-07-10T12:05:50Z</time>
      </trkpt>
      <trkpt lat="43.28928" lon="-0.37499">
        <ele>173.66</ele>
        <time>2012-07-10T12:06:00Z</time>
      </trkpt>
      <trkpt lat="43.28929" lon="-0.37484">
        <ele>173.17</ele>
        <time>2012-07-10T12:06:11Z</time>
      </trkpt>
      <trkpt lat="43.28925" lon="-0.37473">
        <ele>173.17</ele>
        <time>2012-07-10T12:06:22Z</time>
      </trkpt>
      <trkpt lat="43.2892" lon="-0.37461">
        <ele>173.17</ele>
        <time>2012-07-10T12:06:32Z</time>
      </trkpt>
      <trkpt lat="43.28912" lon="-0.37452">
        <ele>172.21</ele>
        <time>2012-07-10T12:06:42Z</time>
      </trkpt>
      <trkpt lat="43.28906" lon="-0.37442">
        <ele>173.17</ele>
        <time>2012-07-10T12:06:53Z</time>
      </trkpt>
      <trkpt lat="43.28899" lon="-0.37429">
        <ele>172.69</ele>
        <time>2012-07-10T12:07:03Z</time>
      </trkpt>
      <trkpt lat="43.28892" lon="-0.37419">
        <ele>172.69</ele>
        <time>2012-07-10T12:07:13Z</time>
      </trkpt>
      <trkpt lat="43.28885" lon="-0.37408">
        <ele>172.21</ele>
        <time>2012-07-10T12:07:23Z</time>
      </trkpt>
      <trkpt lat="43.28878" lon="-0.37397">
        <ele>172.69</ele>
        <time>2012-07-10T12:07:33Z</time>
      </trkpt>
      <trkpt lat="43.28872" lon="-0.37386">
        <ele>172.69</ele>
        <time>2012-07-10T12:07:43Z</time>
      </trkpt>
      <trkpt lat="43.28864" lon="-0.37376">
        <ele>173.17</ele>
        <time>2012-07-10T12:07:53Z</time>
      </trkpt>
      <trkpt lat="43.28857" lon="-0.37366">
        <ele>173.17</ele>
        <time>2012-07-10T12:08:03Z</time>
      </trkpt>
      <trkpt lat="43.28851" lon="-0.37356">
        <ele>172.69</ele>
        <time>2012-07-10T12:08:12Z</time>
      </trkpt>
      <trkpt lat="43.28842" lon="-0.37346">
        <ele>172.69</ele>
        <time>2012-07-10T12:08:22Z</time>
      </trkpt>
      <trkpt lat="43.28834" lon="-0.37338">
        <ele>172.69</ele>
        <time>2012-07-10T12:08:32Z</time>
      </trkpt>
      <trkpt lat="43.28826" lon="-0.3733">
        <ele>172.69</ele>
        <time>2012-07-10T12:08:42Z</time>
      </trkpt>
      <trkpt lat="43.28819" lon="-0.37322">
        <ele>172.69</ele>
        <time>2012-07-10T12:08:52Z</time>
      </trkpt>
      <trkpt lat="43.28812" lon="-0.37312">
        <ele>173.17</ele>
        <time>2012-07-10T12:09:02Z</time>
      </trkpt>
      <trkpt lat="43.28808" lon="-0.37304">
        <ele>173.17</ele>
        <time>2012-07-10T12:09:14Z</time>
      </trkpt>
      <trkpt lat="43.28802" lon="-0.37296">
        <ele>173.17</ele>
        <time>2012-07-10T12:09:28Z</time>
      </trkpt>
      <trkpt lat="43.28796" lon="-0.37285">
        <ele>173.17</ele>
        <time>2012-07-10T12:09:38Z</time>
      </trkpt>
      <trkpt lat="43.2879" lon="-0.37273">
        <ele>173.17</ele>
        <time>2012-07-10T12:09:47Z</time>
      </trkpt>
      <trkpt lat="43.28784" lon="-0.37262">
        <ele>173.17</ele>
        <time>2012-07-10T12:09:56Z</time>
      </trkpt>
      <trkpt lat="43.28778" lon="-0.3725">
        <ele>173.17</ele>
        <time>2012-07-10T12:10:05Z</time>
      </trkpt>
      <trkpt lat="43.28772" lon="-0.37239">
        <ele>173.17</ele>
        <time>2012-07-10T12:10:14Z</time>
      </trkpt>
      <trkpt lat="43.28766" lon="-0.37228">
        <ele>173.17</ele>
        <time>2012-07-10T12:10:23Z</time>
      </trkpt>
      <trkpt lat="43.28759" lon="-0.37217">
        <ele>173.66</ele>
        <time>2012-07-10T12:10:32Z</time>
      </trkpt>
      <trkpt lat="43.28754" lon="-0.37206">
        <ele>173.17</ele>
        <time>2012-07-10T12:10:41Z</time>
      </trkpt>
      <trkpt lat="43.28748" lon="-0.37195">
        <ele>173.66</ele>
        <time>2012-07-10T12:10:51Z</time>
      </trkpt>
      <trkpt lat="43.28742" lon="-0.37183">
        <ele>173.66</ele>
        <time>2012-07-10T12:11:00Z</time>
      </trkpt>
      <trkpt lat="43.28737" lon="-0.37171">
        <ele>173.66</ele>
        <time>2012-07-10T12:11:11Z</time>
      </trkpt>
      <trkpt lat="43.2873" lon="-0.37161">
        <ele>173.66</ele>
        <time>2012-07-10T12:11:21Z</time>
      </trkpt>
      <trkpt lat="43.28724" lon="-0.37149">
        <ele>174.14</ele>
        <time>2012-07-10T12:11:31Z</time>
      </trkpt>
      <trkpt lat="43.28718" lon="-0.37138">
        <ele>173.66</ele>
        <time>2012-07-10T12:11:42Z</time>
      </trkpt>
      <trkpt lat="43.28714" lon="-0.37127">
        <ele>173.66</ele>
        <time>2012-07-10T12:11:51Z</time>
      </trkpt>
      <trkpt lat="43.28708" lon="-0.37116">
        <ele>173.66</ele>
        <time>2012-07-10T12:12:01Z</time>
      </trkpt>
      <trkpt lat="43.28703" lon="-0.37106">
        <ele>174.14</ele>
        <time>2012-07-10T12:12:10Z</time>
      </trkpt>
      <trkpt lat="43.28698" lon="-0.37094">
        <ele>173.66</ele>
        <time>2012-07-10T12:12:19Z</time>
      </trkpt>
      <trkpt lat="43.28693" lon="-0.37084">
        <ele>173.66</ele>
        <time>2012-07-10T12:12:29Z</time>
      </trkpt>
      <trkpt lat="43.28688" lon="-0.37072">
        <ele>173.66</ele>
        <time>2012-07-10T12:12:39Z</time>
      </trkpt>
      <trkpt lat="43.28684" lon="-0.37058">
        <ele>173.66</ele>
        <time>2012-07-10T12:12:49Z</time>
      </trkpt>
      <trkpt lat="43.28679" lon="-0.37046">
        <ele>173.66</ele>
        <time>2012-07-10T12:12:59Z</time>
      </trkpt>
      <trkpt lat="43.28674" lon="-0.37035">
        <ele>173.66</ele>
        <time>2012-07-10T12:13:09Z</time>
      </trkpt>
      <trkpt lat="43.28665" lon="-0.37017">
        <ele>174.14</ele>
        <time>2012-07-10T12:13:46Z</time>
      </trkpt>
      <trkpt lat="43.28659" lon="-0.37006">
        <ele>173.66</ele>
        <time>2012-07-10T12:13:57Z</time>
      </trkpt>
      <trkpt lat="43.28651" lon="-0.36974">
        <ele>174.14</ele>
        <time>2012-07-10T12:14:14Z</time>
      </trkpt>
      <trkpt lat="43.28648" lon="-0.3696">
        <ele>174.14</ele>
        <time>2012-07-10T12:14:30Z</time>
      </trkpt>
      <trkpt lat="43.28638" lon="-0.36929">
        <ele>173.66</ele>
        <time>2012-07-10T12:14:42Z</time>
      </trkpt>
      <trkpt lat="43.28632" lon="-0.36917">
        <ele>173.66</ele>
        <time>2012-07-10T12:14:49Z</time>
      </trkpt>
      <trkpt lat="43.28629" lon="-0.36905">
        <ele>173.66</ele>
        <time>2012-07-10T12:14:58Z</time>
      </trkpt>
      <trkpt lat="43.28624" lon="-0.36893">
        <ele>173.66</ele>
        <time>2012-07-10T12:15:10Z</time>
      </trkpt>
      <trkpt lat="43.28612" lon="-0.3688">
        <ele>174.14</ele>
        <time>2012-07-10T12:15:19Z</time>
      </trkpt>
      <trkpt lat="43.28608" lon="-0.36869">
        <ele>173.66</ele>
        <time>2012-07-10T12:15:29Z</time>
      </trkpt>
      <trkpt lat="43.28605" lon="-0.36857">
        <ele>174.14</ele>
        <time>2012-07-10T12:15:38Z</time>
      </trkpt>
      <trkpt lat="43.28601" lon="-0.36847">
        <ele>174.62</ele>
        <time>2012-07-10T12:16:09Z</time>
      </trkpt>
      <trkpt lat="43.28593" lon="-0.36828">
        <ele>173.66</ele>
        <time>2012-07-10T12:16:25Z</time>
      </trkpt>
      <trkpt lat="43.28587" lon="-0.36804">
        <ele>174.14</ele>
        <time>2012-07-10T12:16:34Z</time>
      </trkpt>
      <trkpt lat="43.28573" lon="-0.36765">
        <ele>174.14</ele>
        <time>2012-07-10T12:16:52Z</time>
      </trkpt>
      <trkpt lat="43.28566" lon="-0.36747">
        <ele>173.66</ele>
        <time>2012-07-10T12:17:04Z</time>
      </trkpt>
      <trkpt lat="43.28561" lon="-0.36737">
        <ele>173.66</ele>
        <time>2012-07-10T12:17:26Z</time>
      </trkpt>
      <trkpt lat="43.28555" lon="-0.36716">
        <ele>173.17</ele>
        <time>2012-07-10T12:17:38Z</time>
      </trkpt>
      <trkpt lat="43.28548" lon="-0.36691">
        <ele>173.66</ele>
        <time>2012-07-10T12:17:52Z</time>
      </trkpt>
      <trkpt lat="43.28545" lon="-0.3668">
        <ele>173.66</ele>
        <time>2012-07-10T12:18:04Z</time>
      </trkpt>
      <trkpt lat="43.2854" lon="-0.36668">
        <ele>173.66</ele>
        <time>2012-07-10T12:18:37Z</time>
      </trkpt>
      <trkpt lat="43.28534" lon="-0.36659">
        <ele>173.66</ele>
        <time>2012-07-10T12:18:47Z</time>
      </trkpt>
      <trkpt lat="43.28524" lon="-0.36635">
        <ele>173.66</ele>
        <time>2012-07-10T12:19:00Z</time>
      </trkpt>
      <trkpt lat="43.28523" lon="-0.36622">
        <ele>173.66</ele>
        <time>2012-07-10T12:19:10Z</time>
      </trkpt>
      <trkpt lat="43.28522" lon="-0.3661">
        <ele>173.66</ele>
        <time>2012-07-10T12:19:27Z</time>
      </trkpt>
      <trkpt lat="43.28518" lon="-0.36594">
        <ele>173.66</ele>
        <time>2012-07-10T12:19:34Z</time>
      </trkpt>
      <trkpt lat="43.28509" lon="-0.36578">
        <ele>173.66</ele>
        <time>2012-07-10T12:19:42Z</time>
      </trkpt>
      <trkpt lat="43.28501" lon="-0.36566">
        <ele>173.66</ele>
        <time>2012-07-10T12:19:51Z</time>
      </trkpt>
      <trkpt lat="43.28494" lon="-0.36557">
        <ele>173.66</ele>
        <time>2012-07-10T12:20:00Z</time>
      </trkpt>
      <trkpt lat="43.28483" lon="-0.36549">
        <ele>173.66</ele>
        <time>2012-07-10T12:20:09Z</time>
      </trkpt>
      <trkpt lat="43.28473" lon="-0.36541">
        <ele>174.14</ele>
        <time>2012-07-10T12:20:18Z</time>
      </trkpt>
      <trkpt lat="43.28466" lon="-0.36534">
        <ele>174.14</ele>
        <time>2012-07-10T12:20:28Z</time>
      </trkpt>
      <trkpt lat="43.28464" lon="-0.36522">
        <ele>173.66</ele>
        <time>2012-07-10T12:20:41Z</time>
      </trkpt>
      <trkpt lat="43.28459" lon="-0.3651">
        <ele>174.14</ele>
        <time>2012-07-10T12:20:51Z</time>
      </trkpt>
      <trkpt lat="43.28458" lon="-0.36497">
        <ele>173.66</ele>
        <time>2012-07-10T12:21:00Z</time>
      </trkpt>
      <trkpt lat="43.28455" lon="-0.36483">
        <ele>174.14</ele>
        <time>2012-07-10T12:21:09Z</time>
      </trkpt>
      <trkpt lat="43.28446" lon="-0.36462">
        <ele>173.66</ele>
        <time>2012-07-10T12:21:23Z</time>
      </trkpt>
      <trkpt lat="43.28439" lon="-0.36453">
        <ele>173.66</ele>
        <time>2012-07-10T12:21:34Z</time>
      </trkpt>
      <trkpt lat="43.28436" lon="-0.3644">
        <ele>174.14</ele>
        <time>2012-07-10T12:21:41Z</time>
      </trkpt>
      <trkpt lat="43.28434" lon="-0.36428">
        <ele>173.17</ele>
        <time>2012-07-10T12:21:48Z</time>
      </trkpt>
      <trkpt lat="43.28428" lon="-0.36417">
        <ele>173.66</ele>
        <time>2012-07-10T12:21:57Z</time>
      </trkpt>
      <trkpt lat="43.28422" lon="-0.36406">
        <ele>173.17</ele>
        <time>2012-07-10T12:22:07Z</time>
      </trkpt>
      <trkpt lat="43.28419" lon="-0.36394">
        <ele>173.17</ele>
        <time>2012-07-10T12:22:17Z</time>
      </trkpt>
      <trkpt lat="43.28416" lon="-0.36382">
        <ele>173.66</ele>
        <time>2012-07-10T12:22:26Z</time>
      </trkpt>
      <trkpt lat="43.28413" lon="-0.36368">
        <ele>173.66</ele>
        <time>2012-07-10T12:22:34Z</time>
      </trkpt>
      <trkpt lat="43.28408" lon="-0.36356">
        <ele>174.14</ele>
        <time>2012-07-10T12:22:44Z</time>
      </trkpt>
      <trkpt lat="43.28412" lon="-0.36339">
        <ele>173.66</ele>
        <time>2012-07-10T12:22:52Z</time>
      </trkpt>
      <trkpt lat="43.28408" lon="-0.36327">
        <ele>173.17</ele>
        <time>2012-07-10T12:23:02Z</time>
      </trkpt>
      <trkpt lat="43.28409" lon="-0.36313">
        <ele>172.69</ele>
        <time>2012-07-10T12:23:11Z</time>
      </trkpt>
      <trkpt lat="43.28413" lon="-0.36303">
        <ele>172.21</ele>
        <time>2012-07-10T12:23:21Z</time>
      </trkpt>
      <trkpt lat="43.28417" lon="-0.36293">
        <ele>172.21</ele>
        <time>2012-07-10T12:23:30Z</time>
      </trkpt>
      <trkpt lat="43.2842" lon="-0.3628">
        <ele>171.73</ele>
        <time>2012-07-10T12:23:39Z</time>
      </trkpt>
      <trkpt lat="43.2842" lon="-0.36268">
        <ele>171.73</ele>
        <time>2012-07-10T12:23:47Z</time>
      </trkpt>
      <trkpt lat="43.28424" lon="-0.36255">
        <ele>172.21</ele>
        <time>2012-07-10T12:23:56Z</time>
      </trkpt>
      <trkpt lat="43.28426" lon="-0.36242">
        <ele>171.25</ele>
        <time>2012-07-10T12:24:11Z</time>
      </trkpt>
      <trkpt lat="43.28429" lon="-0.3622">
        <ele>171.73</ele>
        <time>2012-07-10T12:24:20Z</time>
      </trkpt>
      <trkpt lat="43.28424" lon="-0.36209">
        <ele>172.21</ele>
        <time>2012-07-10T12:24:26Z</time>
      </trkpt>
      <trkpt lat="43.28419" lon="-0.362">
        <ele>172.21</ele>
        <time>2012-07-10T12:24:35Z</time>
      </trkpt>
      <trkpt lat="43.28413" lon="-0.3618">
        <ele>171.73</ele>
        <time>2012-07-10T12:24:45Z</time>
      </trkpt>
      <trkpt lat="43.2841" lon="-0.36167">
        <ele>172.21</ele>
        <time>2012-07-10T12:24:54Z</time>
      </trkpt>
      <trkpt lat="43.28405" lon="-0.36157">
        <ele>172.21</ele>
        <time>2012-07-10T12:25:04Z</time>
      </trkpt>
      <trkpt lat="43.284" lon="-0.36146">
        <ele>171.73</ele>
        <time>2012-07-10T12:25:12Z</time>
      </trkpt>
      <trkpt lat="43.28392" lon="-0.36135">
        <ele>171.25</ele>
        <time>2012-07-10T12:25:22Z</time>
      </trkpt>
      <trkpt lat="43.28394" lon="-0.36129">
        <ele>171.73</ele>
        <time>2012-07-10T12:25:44Z</time>
      </trkpt>
      <trkpt lat="43.2841" lon="-0.36132">
        <ele>171.25</ele>
        <time>2012-07-10T12:25:56Z</time>
      </trkpt>
      <trkpt lat="43.28417" lon="-0.36122">
        <ele>171.73</ele>
        <time>2012-07-10T12:26:04Z</time>
      </trkpt>
      <trkpt lat="43.28425" lon="-0.36109">
        <ele>171.25</ele>
        <time>2012-07-10T12:26:12Z</time>
      </trkpt>
      <trkpt lat="43.28427" lon="-0.36096">
        <ele>171.25</ele>
        <time>2012-07-10T12:26:19Z</time>
      </trkpt>
      <trkpt lat="43.28425" lon="-0.36084">
        <ele>171.25</ele>
        <time>2012-07-10T12:26:27Z</time>
      </trkpt>
      <trkpt lat="43.28419" lon="-0.36074">
        <ele>171.25</ele>
        <time>2012-07-10T12:26:34Z</time>
      </trkpt>
      <trkpt lat="43.28412" lon="-0.36065">
        <ele>171.73</ele>
        <time>2012-07-10T12:26:41Z</time>
      </trkpt>
      <trkpt lat="43.28405" lon="-0.36054">
        <ele>171.73</ele>
        <time>2012-07-10T12:26:51Z</time>
      </trkpt>
      <trkpt lat="43.28408" lon="-0.36043">
        <ele>171.73</ele>
        <time>2012-07-10T12:27:01Z</time>
      </trkpt>
      <trkpt lat="43.28413" lon="-0.36031">
        <ele>171.73</ele>
        <time>2012-07-10T12:27:13Z</time>
      </trkpt>
      <trkpt lat="43.28419" lon="-0.3602">
        <ele>172.21</ele>
        <time>2012-07-10T12:27:24Z</time>
      </trkpt>
      <trkpt lat="43.28424" lon="-0.36012">
        <ele>171.73</ele>
        <time>2012-07-10T12:27:49Z</time>
      </trkpt>
      <trkpt lat="43.28437" lon="-0.35984">
        <ele>171.73</ele>
        <time>2012-07-10T12:28:00Z</time>
      </trkpt>
      <trkpt lat="43.28436" lon="-0.35971">
        <ele>172.21</ele>
        <time>2012-07-10T12:28:11Z</time>
      </trkpt>
      <trkpt lat="43.28434" lon="-0.35959">
        <ele>172.21</ele>
        <time>2012-07-10T12:28:20Z</time>
      </trkpt>
      <trkpt lat="43.28435" lon="-0.35944">
        <ele>171.73</ele>
        <time>2012-07-10T12:28:29Z</time>
      </trkpt>
      <trkpt lat="43.28434" lon="-0.35931">
        <ele>171.25</ele>
        <time>2012-07-10T12:28:36Z</time>
      </trkpt>
      <trkpt lat="43.28434" lon="-0.35919">
        <ele>171.25</ele>
        <time>2012-07-10T12:28:45Z</time>
      </trkpt>
      <trkpt lat="43.28434" lon="-0.35906">
        <ele>172.21</ele>
        <time>2012-07-10T12:28:55Z</time>
      </trkpt>
      <trkpt lat="43.28434" lon="-0.35893">
        <ele>171.73</ele>
        <time>2012-07-10T12:29:03Z</time>
      </trkpt>
      <trkpt lat="43.28431" lon="-0.35881">
        <ele>171.73</ele>
        <time>2012-07-10T12:29:12Z</time>
      </trkpt>
      <trkpt lat="43.28429" lon="-0.35869">
        <ele>171.73</ele>
        <time>2012-07-10T12:29:23Z</time>
      </trkpt>
      <trkpt lat="43.28428" lon="-0.35857">
        <ele>171.73</ele>
        <time>2012-07-10T12:29:33Z</time>
      </trkpt>
      <trkpt lat="43.28426" lon="-0.35846">
        <ele>171.25</ele>
        <time>2012-07-10T12:29:42Z</time>
      </trkpt>
      <trkpt lat="43.28424" lon="-0.35828">
        <ele>171.73</ele>
        <time>2012-07-10T12:29:56Z</time>
      </trkpt>
      <trkpt lat="43.28423" lon="-0.35814">
        <ele>171.73</ele>
        <time>2012-07-10T12:30:04Z</time>
      </trkpt>
      <trkpt lat="43.28424" lon="-0.35798">
        <ele>170.77</ele>
        <time>2012-07-10T12:30:12Z</time>
      </trkpt>
      <trkpt lat="43.28423" lon="-0.35785">
        <ele>171.25</ele>
        <time>2012-07-10T12:30:21Z</time>
      </trkpt>
      <trkpt lat="43.28423" lon="-0.35774">
        <ele>171.25</ele>
        <time>2012-07-10T12:30:30Z</time>
      </trkpt>
      <trkpt lat="43.2842" lon="-0.35761">
        <ele>171.73</ele>
        <time>2012-07-10T12:30:39Z</time>
      </trkpt>
      <trkpt lat="43.28416" lon="-0.35749">
        <ele>171.25</ele>
        <time>2012-07-10T12:30:49Z</time>
      </trkpt>
      <trkpt lat="43.28418" lon="-0.35737">
        <ele>171.25</ele>
        <time>2012-07-10T12:30:57Z</time>
      </trkpt>
      <trkpt lat="43.28417" lon="-0.35724">
        <ele>172.21</ele>
        <time>2012-07-10T12:31:06Z</time>
      </trkpt>
      <trkpt lat="43.28416" lon="-0.35711">
        <ele>172.69</ele>
        <time>2012-07-10T12:31:15Z</time>
      </trkpt>
      <trkpt lat="43.28418" lon="-0.35698">
        <ele>173.66</ele>
        <time>2012-07-10T12:31:25Z</time>
      </trkpt>
      <trkpt lat="43.28419" lon="-0.35685">
        <ele>173.17</ele>
        <time>2012-07-10T12:31:35Z</time>
      </trkpt>
      <trkpt lat="43.28421" lon="-0.35673">
        <ele>173.66</ele>
        <time>2012-07-10T12:31:43Z</time>
      </trkpt>
      <trkpt lat="43.28421" lon="-0.35659">
        <ele>173.17</ele>
        <time>2012-07-10T12:31:51Z</time>
      </trkpt>
      <trkpt lat="43.28421" lon="-0.35646">
        <ele>173.17</ele>
        <time>2012-07-10T12:31:59Z</time>
      </trkpt>
      <trkpt lat="43.28423" lon="-0.35633">
        <ele>173.66</ele>
        <time>2012-07-10T12:32:07Z</time>
      </trkpt>
      <trkpt lat="43.28424" lon="-0.35619">
        <ele>173.66</ele>
        <time>2012-07-10T12:32:20Z</time>
      </trkpt>
      <trkpt lat="43.28426" lon="-0.35603">
        <ele>174.14</ele>
        <time>2012-07-10T12:32:32Z</time>
      </trkpt>
      <trkpt lat="43.28431" lon="-0.35587">
        <ele>174.62</ele>
        <time>2012-07-10T12:32:43Z</time>
      </trkpt>
      <trkpt lat="43.28435" lon="-0.35574">
        <ele>174.62</ele>
        <time>2012-07-10T12:32:51Z</time>
      </trkpt>
      <trkpt lat="43.28434" lon="-0.35562">
        <ele>174.62</ele>
        <time>2012-07-10T12:32:59Z</time>
      </trkpt>
      <trkpt lat="43.28434" lon="-0.35551">
        <ele>174.62</ele>
        <time>2012-07-10T12:33:07Z</time>
      </trkpt>
      <trkpt lat="43.28432" lon="-0.35537">
        <ele>174.14</ele>
        <time>2012-07-10T12:33:17Z</time>
      </trkpt>
      <trkpt lat="43.28433" lon="-0.35521">
        <ele>174.14</ele>
        <time>2012-07-10T12:33:28Z</time>
      </trkpt>
      <trkpt lat="43.28436" lon="-0.3551">
        <ele>174.14</ele>
        <time>2012-07-10T12:33:36Z</time>
      </trkpt>
      <trkpt lat="43.28441" lon="-0.35498">
        <ele>174.62</ele>
        <time>2012-07-10T12:33:45Z</time>
      </trkpt>
      <trkpt lat="43.28444" lon="-0.35485">
        <ele>173.66</ele>
        <time>2012-07-10T12:33:53Z</time>
      </trkpt>
      <trkpt lat="43.28442" lon="-0.35472">
        <ele>174.14</ele>
        <time>2012-07-10T12:34:02Z</time>
      </trkpt>
      <trkpt lat="43.28439" lon="-0.35459">
        <ele>174.14</ele>
        <time>2012-07-10T12:34:11Z</time>
      </trkpt>
      <trkpt lat="43.28438" lon="-0.35447">
        <ele>174.14</ele>
        <time>2012-07-10T12:34:19Z</time>
      </trkpt>
      <trkpt lat="43.28441" lon="-0.35435">
        <ele>173.66</ele>
        <time>2012-07-10T12:34:27Z</time>
      </trkpt>
      <trkpt lat="43.28452" lon="-0.35419">
        <ele>174.14</ele>
        <time>2012-07-10T12:34:37Z</time>
      </trkpt>
      <trkpt lat="43.28455" lon="-0.35404">
        <ele>173.66</ele>
        <time>2012-07-10T12:34:47Z</time>
      </trkpt>
      <trkpt lat="43.28463" lon="-0.35392">
        <ele>173.17</ele>
        <time>2012-07-10T12:34:58Z</time>
      </trkpt>
      <trkpt lat="43.28462" lon="-0.35377">
        <ele>172.21</ele>
        <time>2012-07-10T12:35:08Z</time>
      </trkpt>
      <trkpt lat="43.28464" lon="-0.35363">
        <ele>172.21</ele>
        <time>2012-07-10T12:35:17Z</time>
      </trkpt>
      <trkpt lat="43.28467" lon="-0.35351">
        <ele>172.69</ele>
        <time>2012-07-10T12:35:28Z</time>
      </trkpt>
      <trkpt lat="43.28473" lon="-0.35341">
        <ele>173.17</ele>
        <time>2012-07-10T12:35:38Z</time>
      </trkpt>
      <trkpt lat="43.28478" lon="-0.3533">
        <ele>173.17</ele>
        <time>2012-07-10T12:35:50Z</time>
      </trkpt>
      <trkpt lat="43.28482" lon="-0.35318">
        <ele>175.1</ele>
        <time>2012-07-10T12:36:02Z</time>
      </trkpt>
      <trkpt lat="43.28488" lon="-0.35309">
        <ele>174.62</ele>
        <time>2012-07-10T12:36:11Z</time>
      </trkpt>
      <trkpt lat="43.28494" lon="-0.35299">
        <ele>175.1</ele>
        <time>2012-07-10T12:36:20Z</time>
      </trkpt>
      <trkpt lat="43.28502" lon="-0.35288">
        <ele>175.1</ele>
        <time>2012-07-10T12:36:29Z</time>
      </trkpt>
      <trkpt lat="43.2851" lon="-0.35283">
        <ele>175.1</ele>
        <time>2012-07-10T12:36:42Z</time>
      </trkpt>
      <trkpt lat="43.2852" lon="-0.35288">
        <ele>174.62</ele>
        <time>2012-07-10T12:36:50Z</time>
      </trkpt>
      <trkpt lat="43.2852" lon="-0.35279">
        <ele>174.62</ele>
        <time>2012-07-10T12:37:44Z</time>
      </trkpt>
      <trkpt lat="43.28518" lon="-0.35267">
        <ele>174.62</ele>
        <time>2012-07-10T12:37:53Z</time>
      </trkpt>
      <trkpt lat="43.28522" lon="-0.35259">
        <ele>175.1</ele>
        <time>2012-07-10T12:38:05Z</time>
      </trkpt>
      <trkpt lat="43.28529" lon="-0.35257">
        <ele>174.62</ele>
        <time>2012-07-10T12:38:55Z</time>
      </trkpt>
      <trkpt lat="43.28528" lon="-0.35251">
        <ele>175.1</ele>
        <time>2012-07-10T12:41:28Z</time>
      </trkpt>
      <trkpt lat="43.2852" lon="-0.35258">
        <ele>174.62</ele>
        <time>2012-07-10T12:41:42Z</time>
      </trkpt>
      <trkpt lat="43.28514" lon="-0.35248">
        <ele>174.62</ele>
        <time>2012-07-10T12:41:54Z</time>
      </trkpt>
      <trkpt lat="43.28506" lon="-0.35243">
        <ele>174.14</ele>
        <time>2012-07-10T12:42:15Z</time>
      </trkpt>
      <trkpt lat="43.28505" lon="-0.35231">
        <ele>174.62</ele>
        <time>2012-07-10T12:42:27Z</time>
      </trkpt>
      <trkpt lat="43.28502" lon="-0.35219">
        <ele>174.62</ele>
        <time>2012-07-10T12:42:36Z</time>
      </trkpt>
      <trkpt lat="43.28501" lon="-0.35206">
        <ele>174.62</ele>
        <time>2012-07-10T12:42:47Z</time>
      </trkpt>
      <trkpt lat="43.28498" lon="-0.35194">
        <ele>174.62</ele>
        <time>2012-07-10T12:42:56Z</time>
      </trkpt>
      <trkpt lat="43.28495" lon="-0.35183">
        <ele>175.1</ele>
        <time>2012-07-10T12:43:05Z</time>
      </trkpt>
      <trkpt lat="43.28498" lon="-0.35172">
        <ele>175.1</ele>
        <time>2012-07-10T12:43:16Z</time>
      </trkpt>
      <trkpt lat="43.28502" lon="-0.3516">
        <ele>175.1</ele>
        <time>2012-07-10T12:43:26Z</time>
      </trkpt>
      <trkpt lat="43.28497" lon="-0.35148">
        <ele>175.1</ele>
        <time>2012-07-10T12:43:34Z</time>
      </trkpt>
      <trkpt lat="43.28494" lon="-0.35137">
        <ele>175.58</ele>
        <time>2012-07-10T12:43:47Z</time>
      </trkpt>
      <trkpt lat="43.28491" lon="-0.35125">
        <ele>175.1</ele>
        <time>2012-07-10T12:43:55Z</time>
      </trkpt>
      <trkpt lat="43.28488" lon="-0.35112">
        <ele>175.1</ele>
        <time>2012-07-10T12:44:02Z</time>
      </trkpt>
      <trkpt lat="43.28488" lon="-0.351">
        <ele>175.58</ele>
        <time>2012-07-10T12:44:11Z</time>
      </trkpt>
      <trkpt lat="43.28486" lon="-0.35087">
        <ele>175.1</ele>
        <time>2012-07-10T12:44:19Z</time>
      </trkpt>
      <trkpt lat="43.28482" lon="-0.35075">
        <ele>175.1</ele>
        <time>2012-07-10T12:44:28Z</time>
      </trkpt>
      <trkpt lat="43.28478" lon="-0.35063">
        <ele>175.1</ele>
        <time>2012-07-10T12:44:36Z</time>
      </trkpt>
      <trkpt lat="43.28474" lon="-0.35052">
        <ele>175.58</ele>
        <time>2012-07-10T12:44:45Z</time>
      </trkpt>
      <trkpt lat="43.28471" lon="-0.35038">
        <ele>175.58</ele>
        <time>2012-07-10T12:44:58Z</time>
      </trkpt>
      <trkpt lat="43.28469" lon="-0.35026">
        <ele>175.58</ele>
        <time>2012-07-10T12:45:08Z</time>
      </trkpt>
      <trkpt lat="43.28464" lon="-0.35016">
        <ele>175.1</ele>
        <time>2012-07-10T12:45:17Z</time>
      </trkpt>
      <trkpt lat="43.28455" lon="-0.35012">
        <ele>176.06</ele>
        <time>2012-07-10T12:45:28Z</time>
      </trkpt>
      <trkpt lat="43.28443" lon="-0.35016">
        <ele>175.58</ele>
        <time>2012-07-10T12:45:39Z</time>
      </trkpt>
      <trkpt lat="43.28435" lon="-0.3502">
        <ele>176.54</ele>
        <time>2012-07-10T12:45:49Z</time>
      </trkpt>
      <trkpt lat="43.28426" lon="-0.35025">
        <ele>176.54</ele>
        <time>2012-07-10T12:45:59Z</time>
      </trkpt>
      <trkpt lat="43.28414" lon="-0.35026">
        <ele>177.02</ele>
        <time>2012-07-10T12:46:09Z</time>
      </trkpt>
      <trkpt lat="43.28406" lon="-0.35019">
        <ele>177.02</ele>
        <time>2012-07-10T12:46:18Z</time>
      </trkpt>
      <trkpt lat="43.28405" lon="-0.35007">
        <ele>176.54</ele>
        <time>2012-07-10T12:46:28Z</time>
      </trkpt>
      <trkpt lat="43.28403" lon="-0.34994">
        <ele>176.54</ele>
        <time>2012-07-10T12:46:37Z</time>
      </trkpt>
      <trkpt lat="43.28399" lon="-0.34981">
        <ele>176.06</ele>
        <time>2012-07-10T12:46:47Z</time>
      </trkpt>
      <trkpt lat="43.28396" lon="-0.34968">
        <ele>176.54</ele>
        <time>2012-07-10T12:46:56Z</time>
      </trkpt>
      <trkpt lat="43.28387" lon="-0.34963">
        <ele>176.54</ele>
        <time>2012-07-10T12:47:05Z</time>
      </trkpt>
      <trkpt lat="43.28377" lon="-0.34957">
        <ele>176.54</ele>
        <time>2012-07-10T12:47:15Z</time>
      </trkpt>
      <trkpt lat="43.2837" lon="-0.34955">
        <ele>176.06</ele>
        <time>2012-07-10T12:47:27Z</time>
      </trkpt>
      <trkpt lat="43.28363" lon="-0.34945">
        <ele>176.06</ele>
        <time>2012-07-10T12:47:38Z</time>
      </trkpt>
      <trkpt lat="43.28358" lon="-0.34931">
        <ele>176.06</ele>
        <time>2012-07-10T12:47:46Z</time>
      </trkpt>
      <trkpt lat="43.28356" lon="-0.34918">
        <ele>176.54</ele>
        <time>2012-07-10T12:47:54Z</time>
      </trkpt>
      <trkpt lat="43.28351" lon="-0.34908">
        <ele>176.06</ele>
        <time>2012-07-10T12:48:03Z</time>
      </trkpt>
      <trkpt lat="43.28345" lon="-0.34897">
        <ele>176.54</ele>
        <time>2012-07-10T12:48:13Z</time>
      </trkpt>
      <trkpt lat="43.2834" lon="-0.34885">
        <ele>176.54</ele>
        <time>2012-07-10T12:48:24Z</time>
      </trkpt>
      <trkpt lat="43.28335" lon="-0.34874">
        <ele>176.54</ele>
        <time>2012-07-10T12:48:33Z</time>
      </trkpt>
      <trkpt lat="43.2833" lon="-0.34863">
        <ele>176.54</ele>
        <time>2012-07-10T12:48:44Z</time>
      </trkpt>
      <trkpt lat="43.28324" lon="-0.34853">
        <ele>177.02</ele>
        <time>2012-07-10T12:48:54Z</time>
      </trkpt>
      <trkpt lat="43.28318" lon="-0.34839">
        <ele>176.54</ele>
        <time>2012-07-10T12:49:05Z</time>
      </trkpt>
      <trkpt lat="43.28313" lon="-0.34827">
        <ele>176.54</ele>
        <time>2012-07-10T12:49:14Z</time>
      </trkpt>
      <trkpt lat="43.28309" lon="-0.34815">
        <ele>176.54</ele>
        <time>2012-07-10T12:49:24Z</time>
      </trkpt>
      <trkpt lat="43.28304" lon="-0.34801">
        <ele>177.02</ele>
        <time>2012-07-10T12:49:34Z</time>
      </trkpt>
      <trkpt lat="43.28295" lon="-0.3479">
        <ele>176.54</ele>
        <time>2012-07-10T12:49:45Z</time>
      </trkpt>
      <trkpt lat="43.28287" lon="-0.34781">
        <ele>176.54</ele>
        <time>2012-07-10T12:49:55Z</time>
      </trkpt>
      <trkpt lat="43.28282" lon="-0.3477">
        <ele>176.54</ele>
        <time>2012-07-10T12:50:05Z</time>
      </trkpt>
      <trkpt lat="43.28275" lon="-0.3476">
        <ele>176.54</ele>
        <time>2012-07-10T12:50:16Z</time>
      </trkpt>
      <trkpt lat="43.28268" lon="-0.3475">
        <ele>177.02</ele>
        <time>2012-07-10T12:50:25Z</time>
      </trkpt>
      <trkpt lat="43.28262" lon="-0.34741">
        <ele>177.5</ele>
        <time>2012-07-10T12:50:40Z</time>
      </trkpt>
      <trkpt lat="43.28257" lon="-0.34729">
        <ele>177.5</ele>
        <time>2012-07-10T12:50:52Z</time>
      </trkpt>
      <trkpt lat="43.28252" lon="-0.34716">
        <ele>177.98</ele>
        <time>2012-07-10T12:51:02Z</time>
      </trkpt>
      <trkpt lat="43.28246" lon="-0.34702">
        <ele>177.98</ele>
        <time>2012-07-10T12:51:12Z</time>
      </trkpt>
      <trkpt lat="43.28244" lon="-0.34687">
        <ele>177.5</ele>
        <time>2012-07-10T12:51:22Z</time>
      </trkpt>
      <trkpt lat="43.28241" lon="-0.34669">
        <ele>177.5</ele>
        <time>2012-07-10T12:51:35Z</time>
      </trkpt>
      <trkpt lat="43.28236" lon="-0.34652">
        <ele>177.5</ele>
        <time>2012-07-10T12:51:48Z</time>
      </trkpt>
      <trkpt lat="43.28234" lon="-0.34638">
        <ele>177.98</ele>
        <time>2012-07-10T12:51:58Z</time>
      </trkpt>
      <trkpt lat="43.28228" lon="-0.34622">
        <ele>177.5</ele>
        <time>2012-07-10T12:52:08Z</time>
      </trkpt>
      <trkpt lat="43.28223" lon="-0.3461">
        <ele>177.98</ele>
        <time>2012-07-10T12:52:18Z</time>
      </trkpt>
      <trkpt lat="43.28217" lon="-0.34598">
        <ele>177.98</ele>
        <time>2012-07-10T12:52:28Z</time>
      </trkpt>
      <trkpt lat="43.28217" lon="-0.34584">
        <ele>177.98</ele>
        <time>2012-07-10T12:52:39Z</time>
      </trkpt>
      <trkpt lat="43.28213" lon="-0.34571">
        <ele>177.98</ele>
        <time>2012-07-10T12:52:50Z</time>
      </trkpt>
      <trkpt lat="43.28206" lon="-0.3456">
        <ele>178.46</ele>
        <time>2012-07-10T12:52:59Z</time>
      </trkpt>
      <trkpt lat="43.28201" lon="-0.34547">
        <ele>178.46</ele>
        <time>2012-07-10T12:53:09Z</time>
      </trkpt>
      <trkpt lat="43.28197" lon="-0.34536">
        <ele>178.46</ele>
        <time>2012-07-10T12:53:19Z</time>
      </trkpt>
      <trkpt lat="43.2819" lon="-0.34526">
        <ele>178.94</ele>
        <time>2012-07-10T12:53:29Z</time>
      </trkpt>
      <trkpt lat="43.28182" lon="-0.34515">
        <ele>178.46</ele>
        <time>2012-07-10T12:53:39Z</time>
      </trkpt>
      <trkpt lat="43.28175" lon="-0.34504">
        <ele>178.46</ele>
        <time>2012-07-10T12:53:48Z</time>
      </trkpt>
      <trkpt lat="43.28169" lon="-0.34494">
        <ele>178.46</ele>
        <time>2012-07-10T12:53:58Z</time>
      </trkpt>
      <trkpt lat="43.28161" lon="-0.34484">
        <ele>178.46</ele>
        <time>2012-07-10T12:54:09Z</time>
      </trkpt>
      <trkpt lat="43.28154" lon="-0.34475">
        <ele>178.46</ele>
        <time>2012-07-10T12:54:17Z</time>
      </trkpt>
      <trkpt lat="43.28147" lon="-0.34465">
        <ele>178.46</ele>
        <time>2012-07-10T12:54:26Z</time>
      </trkpt>
      <trkpt lat="43.28142" lon="-0.3445">
        <ele>178.94</ele>
        <time>2012-07-10T12:54:37Z</time>
      </trkpt>
      <trkpt lat="43.28136" lon="-0.3444">
        <ele>178.94</ele>
        <time>2012-07-10T12:54:47Z</time>
      </trkpt>
      <trkpt lat="43.28129" lon="-0.34431">
        <ele>178.94</ele>
        <time>2012-07-10T12:54:57Z</time>
      </trkpt>
      <trkpt lat="43.28122" lon="-0.34424">
        <ele>178.94</ele>
        <time>2012-07-10T12:55:07Z</time>
      </trkpt>
      <trkpt lat="43.28114" lon="-0.34415">
        <ele>178.94</ele>
        <time>2012-07-10T12:55:16Z</time>
      </trkpt>
      <trkpt lat="43.28105" lon="-0.34405">
        <ele>178.94</ele>
        <time>2012-07-10T12:55:24Z</time>
      </trkpt>
      <trkpt lat="43.28096" lon="-0.34401">
        <ele>178.94</ele>
        <time>2012-07-10T12:55:32Z</time>
      </trkpt>
      <trkpt lat="43.28087" lon="-0.34401">
        <ele>179.42</ele>
        <time>2012-07-10T12:55:41Z</time>
      </trkpt>
      <trkpt lat="43.28077" lon="-0.34398">
        <ele>178.94</ele>
        <time>2012-07-10T12:55:48Z</time>
      </trkpt>
      <trkpt lat="43.28068" lon="-0.34398">
        <ele>178.94</ele>
        <time>2012-07-10T12:55:56Z</time>
      </trkpt>
      <trkpt lat="43.28068" lon="-0.34396">
        <ele>178.46</ele>
        <time>2012-07-10T12:56:18Z</time>
      </trkpt>
      <trkpt lat="43.28076" lon="-0.34376">
        <ele>177.98</ele>
        <time>2012-07-10T12:56:33Z</time>
      </trkpt>
      <trkpt lat="43.28075" lon="-0.3436">
        <ele>178.46</ele>
        <time>2012-07-10T12:56:42Z</time>
      </trkpt>
      <trkpt lat="43.28068" lon="-0.34346">
        <ele>178.46</ele>
        <time>2012-07-10T12:56:53Z</time>
      </trkpt>
      <trkpt lat="43.28064" lon="-0.34333">
        <ele>178.46</ele>
        <time>2012-07-10T12:57:02Z</time>
      </trkpt>
      <trkpt lat="43.28058" lon="-0.34323">
        <ele>177.98</ele>
        <time>2012-07-10T12:57:10Z</time>
      </trkpt>
      <trkpt lat="43.28051" lon="-0.3431">
        <ele>178.46</ele>
        <time>2012-07-10T12:57:20Z</time>
      </trkpt>
      <trkpt lat="43.28046" lon="-0.34299">
        <ele>178.46</ele>
        <time>2012-07-10T12:57:30Z</time>
      </trkpt>
      <trkpt lat="43.2804" lon="-0.34287">
        <ele>178.46</ele>
        <time>2012-07-10T12:57:40Z</time>
      </trkpt>
      <trkpt lat="43.28035" lon="-0.34277">
        <ele>178.46</ele>
        <time>2012-07-10T12:57:47Z</time>
      </trkpt>
      <trkpt lat="43.28029" lon="-0.34266">
        <ele>178.46</ele>
        <time>2012-07-10T12:57:56Z</time>
      </trkpt>
      <trkpt lat="43.28021" lon="-0.34254">
        <ele>178.46</ele>
        <time>2012-07-10T12:58:07Z</time>
      </trkpt>
      <trkpt lat="43.28013" lon="-0.34246">
        <ele>178.46</ele>
        <time>2012-07-10T12:58:15Z</time>
      </trkpt>
      <trkpt lat="43.28008" lon="-0.34236">
        <ele>178.46</ele>
        <time>2012-07-10T12:58:23Z</time>
      </trkpt>
      <trkpt lat="43.28003" lon="-0.34225">
        <ele>178.94</ele>
        <time>2012-07-10T12:58:32Z</time>
      </trkpt>
      <trkpt lat="43.27992" lon="-0.34215">
        <ele>178.94</ele>
        <time>2012-07-10T12:58:41Z</time>
      </trkpt>
      <trkpt lat="43.27986" lon="-0.34206">
        <ele>178.46</ele>
        <time>2012-07-10T12:58:50Z</time>
      </trkpt>
      <trkpt lat="43.27978" lon="-0.34198">
        <ele>179.42</ele>
        <time>2012-07-10T12:58:59Z</time>
      </trkpt>
      <trkpt lat="43.2797" lon="-0.3419">
        <ele>178.94</ele>
        <time>2012-07-10T12:59:07Z</time>
      </trkpt>
      <trkpt lat="43.27963" lon="-0.34182">
        <ele>178.94</ele>
        <time>2012-07-10T12:59:16Z</time>
      </trkpt>
      <trkpt lat="43.27954" lon="-0.34174">
        <ele>179.42</ele>
        <time>2012-07-10T12:59:24Z</time>
      </trkpt>
      <trkpt lat="43.27935" lon="-0.3417">
        <ele>179.42</ele>
        <time>2012-07-10T12:59:43Z</time>
      </trkpt>
      <trkpt lat="43.27922" lon="-0.34168">
        <ele>179.9</ele>
        <time>2012-07-10T12:59:53Z</time>
      </trkpt>
      <trkpt lat="43.2791" lon="-0.34165">
        <ele>179.42</ele>
        <time>2012-07-10T13:00:09Z</time>
      </trkpt>
      <trkpt lat="43.27901" lon="-0.34167">
        <ele>178.94</ele>
        <time>2012-07-10T13:00:17Z</time>
      </trkpt>
      <trkpt lat="43.27891" lon="-0.34145">
        <ele>178.94</ele>
        <time>2012-07-10T13:00:38Z</time>
      </trkpt>
      <trkpt lat="43.27881" lon="-0.34125">
        <ele>178.94</ele>
        <time>2012-07-10T13:00:47Z</time>
      </trkpt>
      <trkpt lat="43.27875" lon="-0.34107">
        <ele>178.94</ele>
        <time>2012-07-10T13:00:57Z</time>
      </trkpt>
      <trkpt lat="43.27869" lon="-0.34099">
        <ele>178.46</ele>
        <time>2012-07-10T13:01:05Z</time>
      </trkpt>
      <trkpt lat="43.27866" lon="-0.34086">
        <ele>178.94</ele>
        <time>2012-07-10T13:01:15Z</time>
      </trkpt>
      <trkpt lat="43.27859" lon="-0.34072">
        <ele>179.42</ele>
        <time>2012-07-10T13:01:25Z</time>
      </trkpt>
      <trkpt lat="43.27848" lon="-0.34061">
        <ele>179.42</ele>
        <time>2012-07-10T13:01:36Z</time>
      </trkpt>
      <trkpt lat="43.27838" lon="-0.34056">
        <ele>179.42</ele>
        <time>2012-07-10T13:01:46Z</time>
      </trkpt>
      <trkpt lat="43.27828" lon="-0.3405">
        <ele>179.9</ele>
        <time>2012-07-10T13:01:56Z</time>
      </trkpt>
      <trkpt lat="43.27824" lon="-0.34038">
        <ele>179.9</ele>
        <time>2012-07-10T13:02:05Z</time>
      </trkpt>
      <trkpt lat="43.27814" lon="-0.34029">
        <ele>180.38</ele>
        <time>2012-07-10T13:02:15Z</time>
      </trkpt>
      <trkpt lat="43.27803" lon="-0.34024">
        <ele>179.9</ele>
        <time>2012-07-10T13:02:24Z</time>
      </trkpt>
      <trkpt lat="43.27795" lon="-0.34016">
        <ele>179.9</ele>
        <time>2012-07-10T13:02:32Z</time>
      </trkpt>
      <trkpt lat="43.27788" lon="-0.3401">
        <ele>179.9</ele>
        <time>2012-07-10T13:02:42Z</time>
      </trkpt>
      <trkpt lat="43.2778" lon="-0.34001">
        <ele>179.42</ele>
        <time>2012-07-10T13:02:51Z</time>
      </trkpt>
      <trkpt lat="43.27775" lon="-0.33983">
        <ele>179.42</ele>
        <time>2012-07-10T13:03:02Z</time>
      </trkpt>
      <trkpt lat="43.27767" lon="-0.3397">
        <ele>179.9</ele>
        <time>2012-07-10T13:03:11Z</time>
      </trkpt>
      <trkpt lat="43.27764" lon="-0.33958">
        <ele>179.9</ele>
        <time>2012-07-10T13:03:20Z</time>
      </trkpt>
      <trkpt lat="43.27761" lon="-0.33943">
        <ele>180.38</ele>
        <time>2012-07-10T13:03:30Z</time>
      </trkpt>
      <trkpt lat="43.27755" lon="-0.33929">
        <ele>179.9</ele>
        <time>2012-07-10T13:03:41Z</time>
      </trkpt>
      <trkpt lat="43.27748" lon="-0.33918">
        <ele>179.9</ele>
        <time>2012-07-10T13:03:52Z</time>
      </trkpt>
      <trkpt lat="43.27739" lon="-0.33911">
        <ele>180.38</ele>
        <time>2012-07-10T13:04:03Z</time>
      </trkpt>
      <trkpt lat="43.27732" lon="-0.33904">
        <ele>180.38</ele>
        <time>2012-07-10T13:04:12Z</time>
      </trkpt>
      <trkpt lat="43.27723" lon="-0.33898">
        <ele>180.38</ele>
        <time>2012-07-10T13:04:21Z</time>
      </trkpt>
      <trkpt lat="43.27715" lon="-0.33893">
        <ele>180.38</ele>
        <time>2012-07-10T13:04:28Z</time>
      </trkpt>
      <trkpt lat="43.27705" lon="-0.33885">
        <ele>180.87</ele>
        <time>2012-07-10T13:04:37Z</time>
      </trkpt>
      <trkpt lat="43.27695" lon="-0.33877">
        <ele>180.38</ele>
        <time>2012-07-10T13:04:46Z</time>
      </trkpt>
      <trkpt lat="43.27688" lon="-0.33863">
        <ele>180.38</ele>
        <time>2012-07-10T13:04:57Z</time>
      </trkpt>
      <trkpt lat="43.27684" lon="-0.33851">
        <ele>180.38</ele>
        <time>2012-07-10T13:05:07Z</time>
      </trkpt>
      <trkpt lat="43.2768" lon="-0.33835">
        <ele>180.38</ele>
        <time>2012-07-10T13:05:18Z</time>
      </trkpt>
      <trkpt lat="43.27673" lon="-0.33826">
        <ele>180.38</ele>
        <time>2012-07-10T13:05:27Z</time>
      </trkpt>
      <trkpt lat="43.27666" lon="-0.33816">
        <ele>179.9</ele>
        <time>2012-07-10T13:05:37Z</time>
      </trkpt>
      <trkpt lat="43.27659" lon="-0.33804">
        <ele>180.87</ele>
        <time>2012-07-10T13:05:47Z</time>
      </trkpt>
      <trkpt lat="43.27657" lon="-0.33789">
        <ele>181.35</ele>
        <time>2012-07-10T13:05:57Z</time>
      </trkpt>
      <trkpt lat="43.27653" lon="-0.33776">
        <ele>180.87</ele>
        <time>2012-07-10T13:06:07Z</time>
      </trkpt>
      <trkpt lat="43.27646" lon="-0.33764">
        <ele>180.87</ele>
        <time>2012-07-10T13:06:17Z</time>
      </trkpt>
      <trkpt lat="43.2764" lon="-0.33751">
        <ele>180.87</ele>
        <time>2012-07-10T13:06:27Z</time>
      </trkpt>
      <trkpt lat="43.27634" lon="-0.3374">
        <ele>180.38</ele>
        <time>2012-07-10T13:06:37Z</time>
      </trkpt>
      <trkpt lat="43.27627" lon="-0.3373">
        <ele>180.38</ele>
        <time>2012-07-10T13:06:46Z</time>
      </trkpt>
      <trkpt lat="43.27622" lon="-0.3372">
        <ele>181.35</ele>
        <time>2012-07-10T13:06:56Z</time>
      </trkpt>
      <trkpt lat="43.27616" lon="-0.33707">
        <ele>181.35</ele>
        <time>2012-07-10T13:07:07Z</time>
      </trkpt>
      <trkpt lat="43.27609" lon="-0.33696">
        <ele>181.35</ele>
        <time>2012-07-10T13:07:16Z</time>
      </trkpt>
      <trkpt lat="43.27599" lon="-0.33684">
        <ele>181.83</ele>
        <time>2012-07-10T13:07:26Z</time>
      </trkpt>
      <trkpt lat="43.27591" lon="-0.33673">
        <ele>181.83</ele>
        <time>2012-07-10T13:07:35Z</time>
      </trkpt>
      <trkpt lat="43.27583" lon="-0.33664">
        <ele>182.31</ele>
        <time>2012-07-10T13:07:45Z</time>
      </trkpt>
      <trkpt lat="43.27574" lon="-0.33665">
        <ele>181.83</ele>
        <time>2012-07-10T13:07:54Z</time>
      </trkpt>
      <trkpt lat="43.27565" lon="-0.33666">
        <ele>181.83</ele>
        <time>2012-07-10T13:08:03Z</time>
      </trkpt>
      <trkpt lat="43.27557" lon="-0.33661">
        <ele>181.83</ele>
        <time>2012-07-10T13:08:11Z</time>
      </trkpt>
      <trkpt lat="43.27549" lon="-0.33653">
        <ele>182.31</ele>
        <time>2012-07-10T13:08:20Z</time>
      </trkpt>
      <trkpt lat="43.2754" lon="-0.33643">
        <ele>182.31</ele>
        <time>2012-07-10T13:08:29Z</time>
      </trkpt>
      <trkpt lat="43.27535" lon="-0.3363">
        <ele>182.79</ele>
        <time>2012-07-10T13:08:38Z</time>
      </trkpt>
      <trkpt lat="43.27528" lon="-0.33621">
        <ele>181.83</ele>
        <time>2012-07-10T13:08:47Z</time>
      </trkpt>
      <trkpt lat="43.27519" lon="-0.33613">
        <ele>182.31</ele>
        <time>2012-07-10T13:08:56Z</time>
      </trkpt>
      <trkpt lat="43.2751" lon="-0.33607">
        <ele>182.79</ele>
        <time>2012-07-10T13:09:05Z</time>
      </trkpt>
      <trkpt lat="43.27503" lon="-0.33599">
        <ele>182.79</ele>
        <time>2012-07-10T13:09:14Z</time>
      </trkpt>
      <trkpt lat="43.27496" lon="-0.33589">
        <ele>182.79</ele>
        <time>2012-07-10T13:09:23Z</time>
      </trkpt>
      <trkpt lat="43.27492" lon="-0.33576">
        <ele>182.79</ele>
        <time>2012-07-10T13:09:33Z</time>
      </trkpt>
      <trkpt lat="43.2749" lon="-0.33564">
        <ele>182.31</ele>
        <time>2012-07-10T13:09:44Z</time>
      </trkpt>
      <trkpt lat="43.27491" lon="-0.3355">
        <ele>182.31</ele>
        <time>2012-07-10T13:09:53Z</time>
      </trkpt>
      <trkpt lat="43.2748" lon="-0.33544">
        <ele>182.79</ele>
        <time>2012-07-10T13:10:02Z</time>
      </trkpt>
      <trkpt lat="43.27469" lon="-0.3354">
        <ele>182.79</ele>
        <time>2012-07-10T13:10:09Z</time>
      </trkpt>
      <trkpt lat="43.27459" lon="-0.33537">
        <ele>183.27</ele>
        <time>2012-07-10T13:10:17Z</time>
      </trkpt>
      <trkpt lat="43.27449" lon="-0.33533">
        <ele>183.27</ele>
        <time>2012-07-10T13:10:25Z</time>
      </trkpt>
      <trkpt lat="43.27438" lon="-0.33529">
        <ele>182.79</ele>
        <time>2012-07-10T13:10:36Z</time>
      </trkpt>
      <trkpt lat="43.27429" lon="-0.33528">
        <ele>182.79</ele>
        <time>2012-07-10T13:10:45Z</time>
      </trkpt>
      <trkpt lat="43.27418" lon="-0.33525">
        <ele>183.27</ele>
        <time>2012-07-10T13:10:54Z</time>
      </trkpt>
      <trkpt lat="43.27406" lon="-0.33522">
        <ele>183.27</ele>
        <time>2012-07-10T13:11:03Z</time>
      </trkpt>
      <trkpt lat="43.27396" lon="-0.33519">
        <ele>182.79</ele>
        <time>2012-07-10T13:11:11Z</time>
      </trkpt>
      <trkpt lat="43.27386" lon="-0.33517">
        <ele>183.27</ele>
        <time>2012-07-10T13:11:20Z</time>
      </trkpt>
      <trkpt lat="43.27377" lon="-0.33515">
        <ele>183.27</ele>
        <time>2012-07-10T13:11:29Z</time>
      </trkpt>
      <trkpt lat="43.27367" lon="-0.33512">
        <ele>183.27</ele>
        <time>2012-07-10T13:11:39Z</time>
      </trkpt>
      <trkpt lat="43.27369" lon="-0.33526">
        <ele>183.75</ele>
        <time>2012-07-10T13:12:12Z</time>
      </trkpt>
      <trkpt lat="43.27366" lon="-0.33542">
        <ele>184.23</ele>
        <time>2012-07-10T13:12:22Z</time>
      </trkpt>
      <trkpt lat="43.2736" lon="-0.33556">
        <ele>184.71</ele>
        <time>2012-07-10T13:12:32Z</time>
      </trkpt>
      <trkpt lat="43.27353" lon="-0.33573">
        <ele>183.75</ele>
        <time>2012-07-10T13:12:42Z</time>
      </trkpt>
      <trkpt lat="43.27348" lon="-0.33583">
        <ele>184.23</ele>
        <time>2012-07-10T13:12:52Z</time>
      </trkpt>
      <trkpt lat="43.27339" lon="-0.33592">
        <ele>184.23</ele>
        <time>2012-07-10T13:13:02Z</time>
      </trkpt>
      <trkpt lat="43.27332" lon="-0.33599">
        <ele>184.23</ele>
        <time>2012-07-10T13:13:15Z</time>
      </trkpt>
      <trkpt lat="43.27325" lon="-0.33608">
        <ele>184.23</ele>
        <time>2012-07-10T13:13:24Z</time>
      </trkpt>
      <trkpt lat="43.27323" lon="-0.33619">
        <ele>184.71</ele>
        <time>2012-07-10T13:13:37Z</time>
      </trkpt>
      <trkpt lat="43.27318" lon="-0.33623">
        <ele>184.23</ele>
        <time>2012-07-10T13:13:58Z</time>
      </trkpt>
      <trkpt lat="43.2732" lon="-0.33619">
        <ele>184.71</ele>
        <time>2012-07-10T13:21:18Z</time>
      </trkpt>
      <trkpt lat="43.27316" lon="-0.33627">
        <ele>184.23</ele>
        <time>2012-07-10T13:25:30Z</time>
      </trkpt>
      <trkpt lat="43.27309" lon="-0.33641">
        <ele>184.71</ele>
        <time>2012-07-10T13:25:39Z</time>
      </trkpt>
      <trkpt lat="43.27302" lon="-0.33654">
        <ele>184.71</ele>
        <time>2012-07-10T13:25:48Z</time>
      </trkpt>
      <trkpt lat="43.27297" lon="-0.33665">
        <ele>184.71</ele>
        <time>2012-07-10T13:25:56Z</time>
      </trkpt>
      <trkpt lat="43.27291" lon="-0.33676">
        <ele>184.71</ele>
        <time>2012-07-10T13:26:05Z</time>
      </trkpt>
      <trkpt lat="43.27285" lon="-0.33687">
        <ele>184.71</ele>
        <time>2012-07-10T13:26:14Z</time>
      </trkpt>
      <trkpt lat="43.27277" lon="-0.33696">
        <ele>184.71</ele>
        <time>2012-07-10T13:26:26Z</time>
      </trkpt>
      <trkpt lat="43.27271" lon="-0.33706">
        <ele>184.71</ele>
        <time>2012-07-10T13:26:40Z</time>
      </trkpt>
      <trkpt lat="43.27263" lon="-0.33715">
        <ele>185.19</ele>
        <time>2012-07-10T13:26:50Z</time>
      </trkpt>
      <trkpt lat="43.27256" lon="-0.33724">
        <ele>184.23</ele>
        <time>2012-07-10T13:26:59Z</time>
      </trkpt>
      <trkpt lat="43.2725" lon="-0.33732">
        <ele>184.71</ele>
        <time>2012-07-10T13:27:08Z</time>
      </trkpt>
      <trkpt lat="43.27243" lon="-0.33742">
        <ele>184.71</ele>
        <time>2012-07-10T13:27:18Z</time>
      </trkpt>
      <trkpt lat="43.2724" lon="-0.33753">
        <ele>185.19</ele>
        <time>2012-07-10T13:27:57Z</time>
      </trkpt>
      <trkpt lat="43.27233" lon="-0.33762">
        <ele>185.19</ele>
        <time>2012-07-10T13:28:16Z</time>
      </trkpt>
      <trkpt lat="43.27229" lon="-0.33776">
        <ele>184.71</ele>
        <time>2012-07-10T13:28:26Z</time>
      </trkpt>
      <trkpt lat="43.27232" lon="-0.3379">
        <ele>185.19</ele>
        <time>2012-07-10T13:28:36Z</time>
      </trkpt>
      <trkpt lat="43.27236" lon="-0.33803">
        <ele>185.19</ele>
        <time>2012-07-10T13:28:47Z</time>
      </trkpt>
      <trkpt lat="43.27241" lon="-0.33814">
        <ele>185.67</ele>
        <time>2012-07-10T13:28:58Z</time>
      </trkpt>
      <trkpt lat="43.27247" lon="-0.33826">
        <ele>185.67</ele>
        <time>2012-07-10T13:29:09Z</time>
      </trkpt>
      <trkpt lat="43.27251" lon="-0.33839">
        <ele>185.19</ele>
        <time>2012-07-10T13:29:19Z</time>
      </trkpt>
      <trkpt lat="43.27255" lon="-0.3385">
        <ele>185.67</ele>
        <time>2012-07-10T13:29:28Z</time>
      </trkpt>
      <trkpt lat="43.27258" lon="-0.33863">
        <ele>185.19</ele>
        <time>2012-07-10T13:29:38Z</time>
      </trkpt>
      <trkpt lat="43.27263" lon="-0.33874">
        <ele>184.71</ele>
        <time>2012-07-10T13:29:48Z</time>
      </trkpt>
      <trkpt lat="43.27266" lon="-0.33886">
        <ele>185.19</ele>
        <time>2012-07-10T13:29:58Z</time>
      </trkpt>
      <trkpt lat="43.27269" lon="-0.33899">
        <ele>185.19</ele>
        <time>2012-07-10T13:30:09Z</time>
      </trkpt>
      <trkpt lat="43.27272" lon="-0.33912">
        <ele>184.71</ele>
        <time>2012-07-10T13:30:19Z</time>
      </trkpt>
      <trkpt lat="43.27275" lon="-0.33922">
        <ele>184.71</ele>
        <time>2012-07-10T13:30:28Z</time>
      </trkpt>
      <trkpt lat="43.27279" lon="-0.33935">
        <ele>185.19</ele>
        <time>2012-07-10T13:30:38Z</time>
      </trkpt>
      <trkpt lat="43.27282" lon="-0.33946">
        <ele>185.19</ele>
        <time>2012-07-10T13:30:47Z</time>
      </trkpt>
      <trkpt lat="43.27283" lon="-0.3396">
        <ele>185.67</ele>
        <time>2012-07-10T13:30:57Z</time>
      </trkpt>
      <trkpt lat="43.27284" lon="-0.33973">
        <ele>185.19</ele>
        <time>2012-07-10T13:31:06Z</time>
      </trkpt>
      <trkpt lat="43.27283" lon="-0.33984">
        <ele>185.19</ele>
        <time>2012-07-10T13:31:17Z</time>
      </trkpt>
      <trkpt lat="43.27285" lon="-0.33995">
        <ele>185.19</ele>
        <time>2012-07-10T13:31:44Z</time>
      </trkpt>
      <trkpt lat="43.27283" lon="-0.3401">
        <ele>185.19</ele>
        <time>2012-07-10T13:32:00Z</time>
      </trkpt>
      <trkpt lat="43.27283" lon="-0.34024">
        <ele>184.71</ele>
        <time>2012-07-10T13:32:10Z</time>
      </trkpt>
      <trkpt lat="43.27282" lon="-0.34036">
        <ele>185.19</ele>
        <time>2012-07-10T13:32:20Z</time>
      </trkpt>
      <trkpt lat="43.27278" lon="-0.34048">
        <ele>184.71</ele>
        <time>2012-07-10T13:32:30Z</time>
      </trkpt>
      <trkpt lat="43.27273" lon="-0.34058">
        <ele>185.67</ele>
        <time>2012-07-10T13:32:39Z</time>
      </trkpt>
      <trkpt lat="43.27268" lon="-0.34069">
        <ele>185.67</ele>
        <time>2012-07-10T13:32:51Z</time>
      </trkpt>
      <trkpt lat="43.27261" lon="-0.34078">
        <ele>185.67</ele>
        <time>2012-07-10T13:33:02Z</time>
      </trkpt>
      <trkpt lat="43.27253" lon="-0.34086">
        <ele>185.19</ele>
        <time>2012-07-10T13:33:12Z</time>
      </trkpt>
      <trkpt lat="43.27245" lon="-0.34095">
        <ele>185.67</ele>
        <time>2012-07-10T13:33:21Z</time>
      </trkpt>
      <trkpt lat="43.27237" lon="-0.34104">
        <ele>185.67</ele>
        <time>2012-07-10T13:33:30Z</time>
      </trkpt>
      <trkpt lat="43.27229" lon="-0.34112">
        <ele>185.67</ele>
        <time>2012-07-10T13:33:39Z</time>
      </trkpt>
      <trkpt lat="43.27222" lon="-0.34122">
        <ele>185.67</ele>
        <time>2012-07-10T13:33:48Z</time>
      </trkpt>
      <trkpt lat="43.27214" lon="-0.3413">
        <ele>185.67</ele>
        <time>2012-07-10T13:33:57Z</time>
      </trkpt>
      <trkpt lat="43.27205" lon="-0.3414">
        <ele>185.67</ele>
        <time>2012-07-10T13:34:06Z</time>
      </trkpt>
      <trkpt lat="43.27196" lon="-0.34148">
        <ele>185.67</ele>
        <time>2012-07-10T13:34:15Z</time>
      </trkpt>
      <trkpt lat="43.27188" lon="-0.34155">
        <ele>185.19</ele>
        <time>2012-07-10T13:34:23Z</time>
      </trkpt>
      <trkpt lat="43.2718" lon="-0.34161">
        <ele>185.67</ele>
        <time>2012-07-10T13:34:32Z</time>
      </trkpt>
      <trkpt lat="43.27173" lon="-0.34168">
        <ele>185.67</ele>
        <time>2012-07-10T13:34:41Z</time>
      </trkpt>
      <trkpt lat="43.27164" lon="-0.34175">
        <ele>185.67</ele>
        <time>2012-07-10T13:34:51Z</time>
      </trkpt>
      <trkpt lat="43.27154" lon="-0.34182">
        <ele>185.67</ele>
        <time>2012-07-10T13:35:00Z</time>
      </trkpt>
      <trkpt lat="43.27146" lon="-0.34189">
        <ele>185.67</ele>
        <time>2012-07-10T13:35:09Z</time>
      </trkpt>
      <trkpt lat="43.27135" lon="-0.34192">
        <ele>185.67</ele>
        <time>2012-07-10T13:35:18Z</time>
      </trkpt>
      <trkpt lat="43.27127" lon="-0.34198">
        <ele>185.67</ele>
        <time>2012-07-10T13:35:28Z</time>
      </trkpt>
      <trkpt lat="43.27119" lon="-0.34206">
        <ele>186.15</ele>
        <time>2012-07-10T13:35:38Z</time>
      </trkpt>
      <trkpt lat="43.27111" lon="-0.34212">
        <ele>186.15</ele>
        <time>2012-07-10T13:35:48Z</time>
      </trkpt>
      <trkpt lat="43.27102" lon="-0.34214">
        <ele>185.67</ele>
        <time>2012-07-10T13:35:57Z</time>
      </trkpt>
      <trkpt lat="43.27092" lon="-0.34216">
        <ele>186.15</ele>
        <time>2012-07-10T13:36:06Z</time>
      </trkpt>
      <trkpt lat="43.27081" lon="-0.34217">
        <ele>186.15</ele>
        <time>2012-07-10T13:36:16Z</time>
      </trkpt>
      <trkpt lat="43.27071" lon="-0.34219">
        <ele>185.67</ele>
        <time>2012-07-10T13:36:25Z</time>
      </trkpt>
      <trkpt lat="43.27061" lon="-0.34222">
        <ele>186.15</ele>
        <time>2012-07-10T13:36:34Z</time>
      </trkpt>
      <trkpt lat="43.27053" lon="-0.34229">
        <ele>186.15</ele>
        <time>2012-07-10T13:36:43Z</time>
      </trkpt>
      <trkpt lat="43.27044" lon="-0.34238">
        <ele>186.63</ele>
        <time>2012-07-10T13:36:53Z</time>
      </trkpt>
      <trkpt lat="43.27037" lon="-0.34248">
        <ele>186.63</ele>
        <time>2012-07-10T13:37:03Z</time>
      </trkpt>
      <trkpt lat="43.27029" lon="-0.34259">
        <ele>186.63</ele>
        <time>2012-07-10T13:37:13Z</time>
      </trkpt>
      <trkpt lat="43.27023" lon="-0.34268">
        <ele>186.15</ele>
        <time>2012-07-10T13:37:23Z</time>
      </trkpt>
      <trkpt lat="43.27023" lon="-0.34282">
        <ele>186.63</ele>
        <time>2012-07-10T13:37:33Z</time>
      </trkpt>
      <trkpt lat="43.27016" lon="-0.34294">
        <ele>186.63</ele>
        <time>2012-07-10T13:37:43Z</time>
      </trkpt>
      <trkpt lat="43.27007" lon="-0.34296">
        <ele>186.15</ele>
        <time>2012-07-10T13:37:58Z</time>
      </trkpt>
      <trkpt lat="43.26996" lon="-0.34298">
        <ele>186.15</ele>
        <time>2012-07-10T13:38:09Z</time>
      </trkpt>
      <trkpt lat="43.2699" lon="-0.34311">
        <ele>186.63</ele>
        <time>2012-07-10T13:38:18Z</time>
      </trkpt>
      <trkpt lat="43.26982" lon="-0.34319">
        <ele>186.63</ele>
        <time>2012-07-10T13:38:28Z</time>
      </trkpt>
      <trkpt lat="43.26978" lon="-0.3433">
        <ele>187.11</ele>
        <time>2012-07-10T13:38:38Z</time>
      </trkpt>
      <trkpt lat="43.2697" lon="-0.34339">
        <ele>186.63</ele>
        <time>2012-07-10T13:38:48Z</time>
      </trkpt>
      <trkpt lat="43.26963" lon="-0.34348">
        <ele>186.63</ele>
        <time>2012-07-10T13:38:58Z</time>
      </trkpt>
      <trkpt lat="43.26956" lon="-0.34359">
        <ele>186.63</ele>
        <time>2012-07-10T13:39:09Z</time>
      </trkpt>
      <trkpt lat="43.26949" lon="-0.34369">
        <ele>186.63</ele>
        <time>2012-07-10T13:39:19Z</time>
      </trkpt>
      <trkpt lat="43.26943" lon="-0.34376">
        <ele>186.63</ele>
        <time>2012-07-10T13:40:18Z</time>
      </trkpt>
      <trkpt lat="43.26931" lon="-0.34382">
        <ele>186.63</ele>
        <time>2012-07-10T13:40:31Z</time>
      </trkpt>
      <trkpt lat="43.2692" lon="-0.34385">
        <ele>186.63</ele>
        <time>2012-07-10T13:40:41Z</time>
      </trkpt>
      <trkpt lat="43.26913" lon="-0.34377">
        <ele>186.63</ele>
        <time>2012-07-10T13:40:52Z</time>
      </trkpt>
      <trkpt lat="43.26911" lon="-0.34365">
        <ele>186.15</ele>
        <time>2012-07-10T13:41:01Z</time>
      </trkpt>
      <trkpt lat="43.26908" lon="-0.34353">
        <ele>186.63</ele>
        <time>2012-07-10T13:41:10Z</time>
      </trkpt>
      <trkpt lat="43.26903" lon="-0.34341">
        <ele>186.15</ele>
        <time>2012-07-10T13:41:20Z</time>
      </trkpt>
      <trkpt lat="43.26897" lon="-0.34329">
        <ele>186.63</ele>
        <time>2012-07-10T13:41:29Z</time>
      </trkpt>
      <trkpt lat="43.26889" lon="-0.34318">
        <ele>186.63</ele>
        <time>2012-07-10T13:41:38Z</time>
      </trkpt>
      <trkpt lat="43.26881" lon="-0.34308">
        <ele>186.63</ele>
        <time>2012-07-10T13:41:47Z</time>
      </trkpt>
      <trkpt lat="43.26874" lon="-0.34301">
        <ele>186.63</ele>
        <time>2012-07-10T13:41:56Z</time>
      </trkpt>
      <trkpt lat="43.26866" lon="-0.34297">
        <ele>186.63</ele>
        <time>2012-07-10T13:42:23Z</time>
      </trkpt>
      <trkpt lat="43.26861" lon="-0.34297">
        <ele>187.11</ele>
        <time>2012-07-10T13:42:47Z</time>
      </trkpt>
      <trkpt lat="43.26854" lon="-0.34288">
        <ele>186.63</ele>
        <time>2012-07-10T13:42:57Z</time>
      </trkpt>
      <trkpt lat="43.26845" lon="-0.34279">
        <ele>186.63</ele>
        <time>2012-07-10T13:43:09Z</time>
      </trkpt>
      <trkpt lat="43.26837" lon="-0.34271">
        <ele>186.63</ele>
        <time>2012-07-10T13:43:18Z</time>
      </trkpt>
      <trkpt lat="43.26829" lon="-0.34264">
        <ele>187.11</ele>
        <time>2012-07-10T13:43:25Z</time>
      </trkpt>
      <trkpt lat="43.2682" lon="-0.34259">
        <ele>186.63</ele>
        <time>2012-07-10T13:43:34Z</time>
      </trkpt>
      <trkpt lat="43.26811" lon="-0.34254">
        <ele>186.63</ele>
        <time>2012-07-10T13:43:42Z</time>
      </trkpt>
      <trkpt lat="43.26802" lon="-0.34248">
        <ele>187.11</ele>
        <time>2012-07-10T13:43:51Z</time>
      </trkpt>
      <trkpt lat="43.26794" lon="-0.34243">
        <ele>187.11</ele>
        <time>2012-07-10T13:44:00Z</time>
      </trkpt>
      <trkpt lat="43.26786" lon="-0.34237">
        <ele>187.11</ele>
        <time>2012-07-10T13:44:09Z</time>
      </trkpt>
      <trkpt lat="43.26778" lon="-0.34229">
        <ele>187.59</ele>
        <time>2012-07-10T13:44:21Z</time>
      </trkpt>
      <trkpt lat="43.26768" lon="-0.34229">
        <ele>187.11</ele>
        <time>2012-07-10T13:44:31Z</time>
      </trkpt>
      <trkpt lat="43.26759" lon="-0.34236">
        <ele>187.59</ele>
        <time>2012-07-10T13:44:41Z</time>
      </trkpt>
      <trkpt lat="43.26752" lon="-0.34248">
        <ele>187.11</ele>
        <time>2012-07-10T13:44:50Z</time>
      </trkpt>
      <trkpt lat="43.26746" lon="-0.34258">
        <ele>187.59</ele>
        <time>2012-07-10T13:45:00Z</time>
      </trkpt>
      <trkpt lat="43.26741" lon="-0.34268">
        <ele>188.08</ele>
        <time>2012-07-10T13:45:10Z</time>
      </trkpt>
      <trkpt lat="43.26734" lon="-0.34278">
        <ele>188.08</ele>
        <time>2012-07-10T13:45:21Z</time>
      </trkpt>
      <trkpt lat="43.26728" lon="-0.34287">
        <ele>188.08</ele>
        <time>2012-07-10T13:45:30Z</time>
      </trkpt>
      <trkpt lat="43.26723" lon="-0.34298">
        <ele>188.08</ele>
        <time>2012-07-10T13:45:43Z</time>
      </trkpt>
      <trkpt lat="43.26717" lon="-0.34308">
        <ele>188.56</ele>
        <time>2012-07-10T13:45:54Z</time>
      </trkpt>
      <trkpt lat="43.2671" lon="-0.34318">
        <ele>189.04</ele>
        <time>2012-07-10T13:46:04Z</time>
      </trkpt>
      <trkpt lat="43.26705" lon="-0.34328">
        <ele>188.56</ele>
        <time>2012-07-10T13:46:14Z</time>
      </trkpt>
      <trkpt lat="43.26697" lon="-0.34338">
        <ele>188.08</ele>
        <time>2012-07-10T13:46:24Z</time>
      </trkpt>
      <trkpt lat="43.26689" lon="-0.34347">
        <ele>188.56</ele>
        <time>2012-07-10T13:46:34Z</time>
      </trkpt>
      <trkpt lat="43.2668" lon="-0.34353">
        <ele>188.56</ele>
        <time>2012-07-10T13:46:45Z</time>
      </trkpt>
      <trkpt lat="43.26672" lon="-0.34361">
        <ele>188.56</ele>
        <time>2012-07-10T13:46:55Z</time>
      </trkpt>
      <trkpt lat="43.26664" lon="-0.34366">
        <ele>189.04</ele>
        <time>2012-07-10T13:47:07Z</time>
      </trkpt>
      <trkpt lat="43.26658" lon="-0.34377">
        <ele>188.56</ele>
        <time>2012-07-10T13:47:28Z</time>
      </trkpt>
      <trkpt lat="43.26653" lon="-0.34388">
        <ele>188.56</ele>
        <time>2012-07-10T13:47:37Z</time>
      </trkpt>
      <trkpt lat="43.26646" lon="-0.34398">
        <ele>189.04</ele>
        <time>2012-07-10T13:47:45Z</time>
      </trkpt>
      <trkpt lat="43.26641" lon="-0.3441">
        <ele>189.04</ele>
        <time>2012-07-10T13:47:54Z</time>
      </trkpt>
      <trkpt lat="43.26636" lon="-0.34422">
        <ele>189.04</ele>
        <time>2012-07-10T13:48:03Z</time>
      </trkpt>
      <trkpt lat="43.2663" lon="-0.34432">
        <ele>188.56</ele>
        <time>2012-07-10T13:48:12Z</time>
      </trkpt>
      <trkpt lat="43.26625" lon="-0.34444">
        <ele>189.04</ele>
        <time>2012-07-10T13:48:51Z</time>
      </trkpt>
      <trkpt lat="43.26619" lon="-0.34456">
        <ele>189.04</ele>
        <time>2012-07-10T13:48:59Z</time>
      </trkpt>
      <trkpt lat="43.26618" lon="-0.34469">
        <ele>189.52</ele>
        <time>2012-07-10T13:49:07Z</time>
      </trkpt>
      <trkpt lat="43.26619" lon="-0.34482">
        <ele>190</ele>
        <time>2012-07-10T13:49:15Z</time>
      </trkpt>
      <trkpt lat="43.26622" lon="-0.34495">
        <ele>190</ele>
        <time>2012-07-10T13:49:23Z</time>
      </trkpt>
      <trkpt lat="43.26628" lon="-0.34504">
        <ele>190.48</ele>
        <time>2012-07-10T13:49:32Z</time>
      </trkpt>
      <trkpt lat="43.26639" lon="-0.34518">
        <ele>190.48</ele>
        <time>2012-07-10T13:49:53Z</time>
      </trkpt>
      <trkpt lat="43.2665" lon="-0.34529">
        <ele>190</ele>
        <time>2012-07-10T13:50:01Z</time>
      </trkpt>
      <trkpt lat="43.26658" lon="-0.34537">
        <ele>190</ele>
        <time>2012-07-10T13:50:07Z</time>
      </trkpt>
      <trkpt lat="43.26663" lon="-0.34547">
        <ele>190</ele>
        <time>2012-07-10T13:50:14Z</time>
      </trkpt>
      <trkpt lat="43.26669" lon="-0.34559">
        <ele>190.48</ele>
        <time>2012-07-10T13:50:22Z</time>
      </trkpt>
      <trkpt lat="43.26673" lon="-0.3457">
        <ele>190.96</ele>
        <time>2012-07-10T13:50:29Z</time>
      </trkpt>
      <trkpt lat="43.26678" lon="-0.3458">
        <ele>191.44</ele>
        <time>2012-07-10T13:50:38Z</time>
      </trkpt>
      <trkpt lat="43.26682" lon="-0.34591">
        <ele>191.92</ele>
        <time>2012-07-10T13:50:47Z</time>
      </trkpt>
      <trkpt lat="43.26687" lon="-0.34602">
        <ele>192.4</ele>
        <time>2012-07-10T13:50:55Z</time>
      </trkpt>
      <trkpt lat="43.26691" lon="-0.34614">
        <ele>192.4</ele>
        <time>2012-07-10T13:51:05Z</time>
      </trkpt>
      <trkpt lat="43.26696" lon="-0.34623">
        <ele>193.36</ele>
        <time>2012-07-10T13:51:17Z</time>
      </trkpt>
      <trkpt lat="43.26703" lon="-0.34631">
        <ele>193.84</ele>
        <time>2012-07-10T13:51:24Z</time>
      </trkpt>
      <trkpt lat="43.26712" lon="-0.34645">
        <ele>194.32</ele>
        <time>2012-07-10T13:51:41Z</time>
      </trkpt>
      <trkpt lat="43.26717" lon="-0.34657">
        <ele>195.28</ele>
        <time>2012-07-10T13:51:50Z</time>
      </trkpt>
      <trkpt lat="43.26718" lon="-0.34673">
        <ele>197.21</ele>
        <time>2012-07-10T13:52:05Z</time>
      </trkpt>
      <trkpt lat="43.26718" lon="-0.34658">
        <ele>197.69</ele>
        <time>2012-07-10T13:52:19Z</time>
      </trkpt>
      <trkpt lat="43.2671" lon="-0.3464">
        <ele>198.65</ele>
        <time>2012-07-10T13:52:29Z</time>
      </trkpt>
      <trkpt lat="43.26704" lon="-0.34631">
        <ele>199.13</ele>
        <time>2012-07-10T13:52:38Z</time>
      </trkpt>
      <trkpt lat="43.26696" lon="-0.34624">
        <ele>200.09</ele>
        <time>2012-07-10T13:52:48Z</time>
      </trkpt>
      <trkpt lat="43.26689" lon="-0.34615">
        <ele>201.05</ele>
        <time>2012-07-10T13:52:57Z</time>
      </trkpt>
      <trkpt lat="43.26681" lon="-0.34608">
        <ele>202.01</ele>
        <time>2012-07-10T13:53:06Z</time>
      </trkpt>
      <trkpt lat="43.26676" lon="-0.34598">
        <ele>202.49</ele>
        <time>2012-07-10T13:53:16Z</time>
      </trkpt>
      <trkpt lat="43.26668" lon="-0.34592">
        <ele>202.98</ele>
        <time>2012-07-10T13:53:28Z</time>
      </trkpt>
      <trkpt lat="43.26661" lon="-0.34583">
        <ele>203.94</ele>
        <time>2012-07-10T13:53:39Z</time>
      </trkpt>
      <trkpt lat="43.26656" lon="-0.34569">
        <ele>205.38</ele>
        <time>2012-07-10T13:53:49Z</time>
      </trkpt>
      <trkpt lat="43.26651" lon="-0.34559">
        <ele>205.86</ele>
        <time>2012-07-10T13:54:00Z</time>
      </trkpt>
      <trkpt lat="43.26645" lon="-0.34551">
        <ele>207.3</ele>
        <time>2012-07-10T13:54:11Z</time>
      </trkpt>
      <trkpt lat="43.26637" lon="-0.34545">
        <ele>207.78</ele>
        <time>2012-07-10T13:54:24Z</time>
      </trkpt>
      <trkpt lat="43.26628" lon="-0.34538">
        <ele>208.74</ele>
        <time>2012-07-10T13:54:35Z</time>
      </trkpt>
      <trkpt lat="43.26619" lon="-0.34537">
        <ele>209.7</ele>
        <time>2012-07-10T13:54:43Z</time>
      </trkpt>
      <trkpt lat="43.2661" lon="-0.34534">
        <ele>210.67</ele>
        <time>2012-07-10T13:54:52Z</time>
      </trkpt>
      <trkpt lat="43.266" lon="-0.3453">
        <ele>211.15</ele>
        <time>2012-07-10T13:55:04Z</time>
      </trkpt>
      <trkpt lat="43.26593" lon="-0.34525">
        <ele>212.11</ele>
        <time>2012-07-10T13:55:14Z</time>
      </trkpt>
      <trkpt lat="43.26584" lon="-0.34523">
        <ele>213.07</ele>
        <time>2012-07-10T13:55:25Z</time>
      </trkpt>
      <trkpt lat="43.26574" lon="-0.3452">
        <ele>213.55</ele>
        <time>2012-07-10T13:55:35Z</time>
      </trkpt>
      <trkpt lat="43.26566" lon="-0.34516">
        <ele>214.03</ele>
        <time>2012-07-10T13:55:44Z</time>
      </trkpt>
      <trkpt lat="43.26558" lon="-0.34508">
        <ele>214.99</ele>
        <time>2012-07-10T13:55:56Z</time>
      </trkpt>
      <trkpt lat="43.26549" lon="-0.34504">
        <ele>216.43</ele>
        <time>2012-07-10T13:56:06Z</time>
      </trkpt>
      <trkpt lat="43.2654" lon="-0.345">
        <ele>216.91</ele>
        <time>2012-07-10T13:56:15Z</time>
      </trkpt>
      <trkpt lat="43.26532" lon="-0.34493">
        <ele>217.4</ele>
        <time>2012-07-10T13:56:27Z</time>
      </trkpt>
      <trkpt lat="43.26524" lon="-0.34488">
        <ele>218.36</ele>
        <time>2012-07-10T13:56:36Z</time>
      </trkpt>
      <trkpt lat="43.26515" lon="-0.34488">
        <ele>219.8</ele>
        <time>2012-07-10T13:56:47Z</time>
      </trkpt>
      <trkpt lat="43.26507" lon="-0.34493">
        <ele>221.72</ele>
        <time>2012-07-10T13:56:59Z</time>
      </trkpt>
      <trkpt lat="43.26501" lon="-0.34503">
        <ele>222.2</ele>
        <time>2012-07-10T13:57:06Z</time>
      </trkpt>
      <trkpt lat="43.26496" lon="-0.34514">
        <ele>222.68</ele>
        <time>2012-07-10T13:57:15Z</time>
      </trkpt>
      <trkpt lat="43.26495" lon="-0.34527">
        <ele>223.64</ele>
        <time>2012-07-10T13:57:26Z</time>
      </trkpt>
      <trkpt lat="43.26489" lon="-0.34539">
        <ele>224.12</ele>
        <time>2012-07-10T13:57:34Z</time>
      </trkpt>
      <trkpt lat="43.26485" lon="-0.3455">
        <ele>225.09</ele>
        <time>2012-07-10T13:57:42Z</time>
      </trkpt>
      <trkpt lat="43.2648" lon="-0.34562">
        <ele>225.57</ele>
        <time>2012-07-10T13:57:52Z</time>
      </trkpt>
      <trkpt lat="43.26476" lon="-0.34573">
        <ele>226.53</ele>
        <time>2012-07-10T13:58:02Z</time>
      </trkpt>
      <trkpt lat="43.26467" lon="-0.34581">
        <ele>227.01</ele>
        <time>2012-07-10T13:58:12Z</time>
      </trkpt>
      <trkpt lat="43.26464" lon="-0.34592">
        <ele>227.97</ele>
        <time>2012-07-10T13:58:23Z</time>
      </trkpt>
      <trkpt lat="43.26458" lon="-0.34589">
        <ele>227.97</ele>
        <time>2012-07-10T13:58:37Z</time>
      </trkpt>
      <trkpt lat="43.26459" lon="-0.34574">
        <ele>228.93</ele>
        <time>2012-07-10T13:58:47Z</time>
      </trkpt>
      <trkpt lat="43.26459" lon="-0.34558">
        <ele>229.41</ele>
        <time>2012-07-10T13:58:56Z</time>
      </trkpt>
      <trkpt lat="43.26459" lon="-0.34548">
        <ele>229.89</ele>
        <time>2012-07-10T13:59:05Z</time>
      </trkpt>
      <trkpt lat="43.26453" lon="-0.34538">
        <ele>230.37</ele>
        <time>2012-07-10T13:59:14Z</time>
      </trkpt>
      <trkpt lat="43.26449" lon="-0.34526">
        <ele>231.33</ele>
        <time>2012-07-10T13:59:22Z</time>
      </trkpt>
      <trkpt lat="43.26444" lon="-0.34513">
        <ele>231.81</ele>
        <time>2012-07-10T13:59:31Z</time>
      </trkpt>
      <trkpt lat="43.26438" lon="-0.34501">
        <ele>232.78</ele>
        <time>2012-07-10T13:59:40Z</time>
      </trkpt>
      <trkpt lat="43.26434" lon="-0.3449">
        <ele>233.74</ele>
        <time>2012-07-10T13:59:50Z</time>
      </trkpt>
      <trkpt lat="43.2643" lon="-0.34477">
        <ele>234.7</ele>
        <time>2012-07-10T13:59:59Z</time>
      </trkpt>
      <trkpt lat="43.26421" lon="-0.34469">
        <ele>236.14</ele>
        <time>2012-07-10T14:00:13Z</time>
      </trkpt>
      <trkpt lat="43.26408" lon="-0.3446">
        <ele>237.1</ele>
        <time>2012-07-10T14:00:26Z</time>
      </trkpt>
      <trkpt lat="43.26399" lon="-0.34456">
        <ele>237.58</ele>
        <time>2012-07-10T14:00:34Z</time>
      </trkpt>
      <trkpt lat="43.26389" lon="-0.34456">
        <ele>238.54</ele>
        <time>2012-07-10T14:00:42Z</time>
      </trkpt>
      <trkpt lat="43.26379" lon="-0.3445">
        <ele>239.02</ele>
        <time>2012-07-10T14:00:50Z</time>
      </trkpt>
      <trkpt lat="43.26369" lon="-0.34445">
        <ele>239.99</ele>
        <time>2012-07-10T14:01:00Z</time>
      </trkpt>
      <trkpt lat="43.26368" lon="-0.34434">
        <ele>241.43</ele>
        <time>2012-07-10T14:01:10Z</time>
      </trkpt>
      <trkpt lat="43.26365" lon="-0.34422">
        <ele>241.43</ele>
        <time>2012-07-10T14:01:19Z</time>
      </trkpt>
      <trkpt lat="43.26362" lon="-0.3441">
        <ele>242.39</ele>
        <time>2012-07-10T14:01:29Z</time>
      </trkpt>
      <trkpt lat="43.26359" lon="-0.34397">
        <ele>243.83</ele>
        <time>2012-07-10T14:01:41Z</time>
      </trkpt>
      <trkpt lat="43.26356" lon="-0.34385">
        <ele>244.31</ele>
        <time>2012-07-10T14:01:50Z</time>
      </trkpt>
      <trkpt lat="43.2635" lon="-0.34376">
        <ele>244.79</ele>
        <time>2012-07-10T14:01:59Z</time>
      </trkpt>
      <trkpt lat="43.26343" lon="-0.34369">
        <ele>246.23</ele>
        <time>2012-07-10T14:02:08Z</time>
      </trkpt>
      <trkpt lat="43.26333" lon="-0.34368">
        <ele>247.2</ele>
        <time>2012-07-10T14:02:18Z</time>
      </trkpt>
      <trkpt lat="43.26325" lon="-0.34364">
        <ele>247.68</ele>
        <time>2012-07-10T14:02:28Z</time>
      </trkpt>
      <trkpt lat="43.26317" lon="-0.34356">
        <ele>248.64</ele>
        <time>2012-07-10T14:02:36Z</time>
      </trkpt>
      <trkpt lat="43.26308" lon="-0.34352">
        <ele>249.12</ele>
        <time>2012-07-10T14:02:45Z</time>
      </trkpt>
      <trkpt lat="43.26299" lon="-0.34349">
        <ele>250.56</ele>
        <time>2012-07-10T14:02:55Z</time>
      </trkpt>
      <trkpt lat="43.26294" lon="-0.34336">
        <ele>251.04</ele>
        <time>2012-07-10T14:03:03Z</time>
      </trkpt>
      <trkpt lat="43.26295" lon="-0.34325">
        <ele>252</ele>
        <time>2012-07-10T14:03:14Z</time>
      </trkpt>
      <trkpt lat="43.26297" lon="-0.34312">
        <ele>252.96</ele>
        <time>2012-07-10T14:03:23Z</time>
      </trkpt>
      <trkpt lat="43.26293" lon="-0.34301">
        <ele>253.93</ele>
        <time>2012-07-10T14:03:32Z</time>
      </trkpt>
      <trkpt lat="43.26285" lon="-0.3429">
        <ele>253.93</ele>
        <time>2012-07-10T14:03:41Z</time>
      </trkpt>
      <trkpt lat="43.26277" lon="-0.34285">
        <ele>255.37</ele>
        <time>2012-07-10T14:03:49Z</time>
      </trkpt>
      <trkpt lat="43.26262" lon="-0.34284">
        <ele>256.33</ele>
        <time>2012-07-10T14:04:02Z</time>
      </trkpt>
      <trkpt lat="43.26253" lon="-0.34289">
        <ele>257.29</ele>
        <time>2012-07-10T14:04:10Z</time>
      </trkpt>
      <trkpt lat="43.26242" lon="-0.34289">
        <ele>257.77</ele>
        <time>2012-07-10T14:04:18Z</time>
      </trkpt>
      <trkpt lat="43.26233" lon="-0.34288">
        <ele>258.73</ele>
        <time>2012-07-10T14:04:28Z</time>
      </trkpt>
      <trkpt lat="43.26224" lon="-0.34285">
        <ele>260.17</ele>
        <time>2012-07-10T14:04:39Z</time>
      </trkpt>
      <trkpt lat="43.26216" lon="-0.34278">
        <ele>260.65</ele>
        <time>2012-07-10T14:04:49Z</time>
      </trkpt>
      <trkpt lat="43.2621" lon="-0.34269">
        <ele>262.1</ele>
        <time>2012-07-10T14:05:00Z</time>
      </trkpt>
      <trkpt lat="43.262" lon="-0.34274">
        <ele>263.54</ele>
        <time>2012-07-10T14:05:08Z</time>
      </trkpt>
      <trkpt lat="43.26197" lon="-0.34289">
        <ele>264.02</ele>
        <time>2012-07-10T14:05:15Z</time>
      </trkpt>
      <trkpt lat="43.26201" lon="-0.343">
        <ele>264.5</ele>
        <time>2012-07-10T14:05:22Z</time>
      </trkpt>
      <trkpt lat="43.26209" lon="-0.3431">
        <ele>265.46</ele>
        <time>2012-07-10T14:05:30Z</time>
      </trkpt>
      <trkpt lat="43.26217" lon="-0.34315">
        <ele>265.94</ele>
        <time>2012-07-10T14:05:39Z</time>
      </trkpt>
      <trkpt lat="43.26226" lon="-0.34321">
        <ele>266.42</ele>
        <time>2012-07-10T14:05:48Z</time>
      </trkpt>
      <trkpt lat="43.26234" lon="-0.34325">
        <ele>267.86</ele>
        <time>2012-07-10T14:05:55Z</time>
      </trkpt>
      <trkpt lat="43.26242" lon="-0.3433">
        <ele>268.35</ele>
        <time>2012-07-10T14:06:02Z</time>
      </trkpt>
      <trkpt lat="43.26247" lon="-0.34341">
        <ele>269.31</ele>
        <time>2012-07-10T14:06:13Z</time>
      </trkpt>
      <trkpt lat="43.26249" lon="-0.34353">
        <ele>270.75</ele>
        <time>2012-07-10T14:06:23Z</time>
      </trkpt>
      <trkpt lat="43.26247" lon="-0.34366">
        <ele>271.23</ele>
        <time>2012-07-10T14:06:32Z</time>
      </trkpt>
      <trkpt lat="43.26249" lon="-0.34379">
        <ele>272.19</ele>
        <time>2012-07-10T14:06:41Z</time>
      </trkpt>
      <trkpt lat="43.26253" lon="-0.34391">
        <ele>273.15</ele>
        <time>2012-07-10T14:06:49Z</time>
      </trkpt>
      <trkpt lat="43.26259" lon="-0.34402">
        <ele>273.63</ele>
        <time>2012-07-10T14:06:57Z</time>
      </trkpt>
      <trkpt lat="43.26266" lon="-0.34412">
        <ele>274.59</ele>
        <time>2012-07-10T14:07:06Z</time>
      </trkpt>
      <trkpt lat="43.26272" lon="-0.34421">
        <ele>275.56</ele>
        <time>2012-07-10T14:07:15Z</time>
      </trkpt>
      <trkpt lat="43.26276" lon="-0.34432">
        <ele>276.04</ele>
        <time>2012-07-10T14:07:25Z</time>
      </trkpt>
      <trkpt lat="43.26275" lon="-0.34445">
        <ele>277</ele>
        <time>2012-07-10T14:07:38Z</time>
      </trkpt>
      <trkpt lat="43.26275" lon="-0.34462">
        <ele>277.96</ele>
        <time>2012-07-10T14:07:48Z</time>
      </trkpt>
      <trkpt lat="43.26276" lon="-0.34474">
        <ele>278.44</ele>
        <time>2012-07-10T14:07:58Z</time>
      </trkpt>
      <trkpt lat="43.26274" lon="-0.34487">
        <ele>279.88</ele>
        <time>2012-07-10T14:08:10Z</time>
      </trkpt>
      <trkpt lat="43.26274" lon="-0.34499">
        <ele>280.36</ele>
        <time>2012-07-10T14:08:17Z</time>
      </trkpt>
      <trkpt lat="43.26271" lon="-0.34512">
        <ele>281.32</ele>
        <time>2012-07-10T14:08:27Z</time>
      </trkpt>
      <trkpt lat="43.26262" lon="-0.34518">
        <ele>281.8</ele>
        <time>2012-07-10T14:08:35Z</time>
      </trkpt>
      <trkpt lat="43.26254" lon="-0.34523">
        <ele>281.8</ele>
        <time>2012-07-10T14:08:42Z</time>
      </trkpt>
      <trkpt lat="43.26251" lon="-0.34536">
        <ele>282.77</ele>
        <time>2012-07-10T14:08:52Z</time>
      </trkpt>
      <trkpt lat="43.26254" lon="-0.34552">
        <ele>283.73</ele>
        <time>2012-07-10T14:09:01Z</time>
      </trkpt>
      <trkpt lat="43.26258" lon="-0.34563">
        <ele>284.69</ele>
        <time>2012-07-10T14:09:08Z</time>
      </trkpt>
      <trkpt lat="43.26268" lon="-0.34578">
        <ele>286.61</ele>
        <time>2012-07-10T14:09:43Z</time>
      </trkpt>
      <trkpt lat="43.26278" lon="-0.34612">
        <ele>287.57</ele>
        <time>2012-07-10T14:09:56Z</time>
      </trkpt>
      <trkpt lat="43.26286" lon="-0.3463">
        <ele>288.53</ele>
        <time>2012-07-10T14:10:07Z</time>
      </trkpt>
      <trkpt lat="43.26289" lon="-0.34644">
        <ele>289.01</ele>
        <time>2012-07-10T14:10:17Z</time>
      </trkpt>
      <trkpt lat="43.26292" lon="-0.34666">
        <ele>290.46</ele>
        <time>2012-07-10T14:10:30Z</time>
      </trkpt>
      <trkpt lat="43.26295" lon="-0.34677">
        <ele>290.94</ele>
        <time>2012-07-10T14:10:53Z</time>
      </trkpt>
      <trkpt lat="43.26295" lon="-0.34691">
        <ele>292.38</ele>
        <time>2012-07-10T14:11:05Z</time>
      </trkpt>
      <trkpt lat="43.26298" lon="-0.34707">
        <ele>293.34</ele>
        <time>2012-07-10T14:11:13Z</time>
      </trkpt>
      <trkpt lat="43.26304" lon="-0.34726">
        <ele>294.3</ele>
        <time>2012-07-10T14:11:24Z</time>
      </trkpt>
      <trkpt lat="43.26306" lon="-0.34739">
        <ele>294.78</ele>
        <time>2012-07-10T14:11:31Z</time>
      </trkpt>
      <trkpt lat="43.2631" lon="-0.34751">
        <ele>295.26</ele>
        <time>2012-07-10T14:11:39Z</time>
      </trkpt>
      <trkpt lat="43.26312" lon="-0.34763">
        <ele>295.74</ele>
        <time>2012-07-10T14:11:50Z</time>
      </trkpt>
      <trkpt lat="43.26313" lon="-0.34775">
        <ele>296.7</ele>
        <time>2012-07-10T14:12:00Z</time>
      </trkpt>
      <trkpt lat="43.26318" lon="-0.34789">
        <ele>297.18</ele>
        <time>2012-07-10T14:12:09Z</time>
      </trkpt>
      <trkpt lat="43.26315" lon="-0.348">
        <ele>298.63</ele>
        <time>2012-07-10T14:12:26Z</time>
      </trkpt>
      <trkpt lat="43.26309" lon="-0.34816">
        <ele>299.59</ele>
        <time>2012-07-10T14:12:34Z</time>
      </trkpt>
      <trkpt lat="43.26308" lon="-0.34829">
        <ele>300.55</ele>
        <time>2012-07-10T14:12:42Z</time>
      </trkpt>
      <trkpt lat="43.26301" lon="-0.34843">
        <ele>302.47</ele>
        <time>2012-07-10T14:12:52Z</time>
      </trkpt>
      <trkpt lat="43.26296" lon="-0.34854">
        <ele>303.43</ele>
        <time>2012-07-10T14:13:00Z</time>
      </trkpt>
      <trkpt lat="43.26286" lon="-0.34864">
        <ele>304.88</ele>
        <time>2012-07-10T14:13:09Z</time>
      </trkpt>
      <trkpt lat="43.26273" lon="-0.34867">
        <ele>306.8</ele>
        <time>2012-07-10T14:13:18Z</time>
      </trkpt>
      <trkpt lat="43.26267" lon="-0.34869">
        <ele>308.72</ele>
        <time>2012-07-10T14:13:27Z</time>
      </trkpt>
      <trkpt lat="43.26263" lon="-0.3488">
        <ele>310.16</ele>
        <time>2012-07-10T14:13:35Z</time>
      </trkpt>
      <trkpt lat="43.26259" lon="-0.34888">
        <ele>312.09</ele>
        <time>2012-07-10T14:13:44Z</time>
      </trkpt>
      <trkpt lat="43.26253" lon="-0.34893">
        <ele>314.01</ele>
        <time>2012-07-10T14:13:54Z</time>
      </trkpt>
      <trkpt lat="43.26248" lon="-0.34903">
        <ele>315.93</ele>
        <time>2012-07-10T14:14:04Z</time>
      </trkpt>
      <trkpt lat="43.26243" lon="-0.34915">
        <ele>316.41</ele>
        <time>2012-07-10T14:14:13Z</time>
      </trkpt>
      <trkpt lat="43.26239" lon="-0.34928">
        <ele>317.85</ele>
        <time>2012-07-10T14:14:23Z</time>
      </trkpt>
      <trkpt lat="43.26233" lon="-0.3494">
        <ele>318.81</ele>
        <time>2012-07-10T14:14:33Z</time>
      </trkpt>
      <trkpt lat="43.26227" lon="-0.34953">
        <ele>320.26</ele>
        <time>2012-07-10T14:14:43Z</time>
      </trkpt>
      <trkpt lat="43.26224" lon="-0.34967">
        <ele>321.7</ele>
        <time>2012-07-10T14:14:53Z</time>
      </trkpt>
      <trkpt lat="43.26219" lon="-0.34979">
        <ele>322.66</ele>
        <time>2012-07-10T14:15:03Z</time>
      </trkpt>
      <trkpt lat="43.2621" lon="-0.34986">
        <ele>323.62</ele>
        <time>2012-07-10T14:15:13Z</time>
      </trkpt>
      <trkpt lat="43.26211" lon="-0.34997">
        <ele>323.14</ele>
        <time>2012-07-10T14:16:07Z</time>
      </trkpt>
      <trkpt lat="43.26213" lon="-0.34993">
        <ele>322.66</ele>
        <time>2012-07-10T14:20:20Z</time>
      </trkpt>
      <trkpt lat="43.26217" lon="-0.3498">
        <ele>322.18</ele>
        <time>2012-07-10T14:20:29Z</time>
      </trkpt>
      <trkpt lat="43.26223" lon="-0.34968">
        <ele>321.22</ele>
        <time>2012-07-10T14:20:37Z</time>
      </trkpt>
      <trkpt lat="43.26225" lon="-0.34966">
        <ele>321.22</ele>
        <time>2012-07-10T14:20:50Z</time>
      </trkpt>
      <trkpt lat="43.26219" lon="-0.34978">
        <ele>322.18</ele>
        <time>2012-07-10T14:20:59Z</time>
      </trkpt>
      <trkpt lat="43.26211" lon="-0.3499">
        <ele>323.14</ele>
        <time>2012-07-10T14:21:09Z</time>
      </trkpt>
      <trkpt lat="43.26215" lon="-0.34994">
        <ele>323.14</ele>
        <time>2012-07-10T14:33:34Z</time>
      </trkpt>
      <trkpt lat="43.26217" lon="-0.34995">
        <ele>323.14</ele>
        <time>2012-07-10T14:34:51Z</time>
      </trkpt>
      <trkpt lat="43.26214" lon="-0.34988">
        <ele>323.14</ele>
        <time>2012-07-10T14:35:28Z</time>
      </trkpt>
      <trkpt lat="43.26218" lon="-0.34982">
        <ele>323.14</ele>
        <time>2012-07-10T14:35:48Z</time>
      </trkpt>
      <trkpt lat="43.26224" lon="-0.34988">
        <ele>323.14</ele>
        <time>2012-07-10T14:36:31Z</time>
      </trkpt>
      <trkpt lat="43.26198" lon="-0.34996">
        <ele>323.62</ele>
        <time>2012-07-10T14:37:14Z</time>
      </trkpt>
      <trkpt lat="43.26193" lon="-0.34993">
        <ele>323.14</ele>
        <time>2012-07-10T14:37:31Z</time>
      </trkpt>
      <trkpt lat="43.26187" lon="-0.35001">
        <ele>323.62</ele>
        <time>2012-07-10T14:38:08Z</time>
      </trkpt>
      <trkpt lat="43.26183" lon="-0.35013">
        <ele>324.1</ele>
        <time>2012-07-10T14:38:17Z</time>
      </trkpt>
      <trkpt lat="43.26178" lon="-0.35023">
        <ele>323.62</ele>
        <time>2012-07-10T14:38:34Z</time>
      </trkpt>
      <trkpt lat="43.26171" lon="-0.35031">
        <ele>323.62</ele>
        <time>2012-07-10T14:38:48Z</time>
      </trkpt>
      <trkpt lat="43.26165" lon="-0.35043">
        <ele>323.14</ele>
        <time>2012-07-10T14:38:59Z</time>
      </trkpt>
      <trkpt lat="43.26158" lon="-0.3505">
        <ele>323.14</ele>
        <time>2012-07-10T14:39:13Z</time>
      </trkpt>
      <trkpt lat="43.26159" lon="-0.35055">
        <ele>322.66</ele>
        <time>2012-07-10T14:39:40Z</time>
      </trkpt>
      <trkpt lat="43.26152" lon="-0.35062">
        <ele>322.66</ele>
        <time>2012-07-10T14:39:49Z</time>
      </trkpt>
      <trkpt lat="43.26142" lon="-0.35066">
        <ele>321.22</ele>
        <time>2012-07-10T14:39:56Z</time>
      </trkpt>
      <trkpt lat="43.26133" lon="-0.35075">
        <ele>320.74</ele>
        <time>2012-07-10T14:40:06Z</time>
      </trkpt>
      <trkpt lat="43.26128" lon="-0.35087">
        <ele>319.78</ele>
        <time>2012-07-10T14:40:16Z</time>
      </trkpt>
      <trkpt lat="43.26119" lon="-0.35095">
        <ele>319.3</ele>
        <time>2012-07-10T14:40:25Z</time>
      </trkpt>
      <trkpt lat="43.26112" lon="-0.3511">
        <ele>319.3</ele>
        <time>2012-07-10T14:40:35Z</time>
      </trkpt>
      <trkpt lat="43.26098" lon="-0.3512">
        <ele>318.81</ele>
        <time>2012-07-10T14:40:45Z</time>
      </trkpt>
      <trkpt lat="43.26092" lon="-0.35128">
        <ele>318.81</ele>
        <time>2012-07-10T14:40:53Z</time>
      </trkpt>
      <trkpt lat="43.26088" lon="-0.3514">
        <ele>318.81</ele>
        <time>2012-07-10T14:41:04Z</time>
      </trkpt>
      <trkpt lat="43.26081" lon="-0.35153">
        <ele>318.81</ele>
        <time>2012-07-10T14:41:13Z</time>
      </trkpt>
      <trkpt lat="43.26073" lon="-0.35161">
        <ele>318.81</ele>
        <time>2012-07-10T14:41:21Z</time>
      </trkpt>
      <trkpt lat="43.26065" lon="-0.35169">
        <ele>318.81</ele>
        <time>2012-07-10T14:41:30Z</time>
      </trkpt>
      <trkpt lat="43.26057" lon="-0.35175">
        <ele>318.81</ele>
        <time>2012-07-10T14:41:39Z</time>
      </trkpt>
      <trkpt lat="43.26049" lon="-0.35176">
        <ele>318.81</ele>
        <time>2012-07-10T14:41:48Z</time>
      </trkpt>
      <trkpt lat="43.2604" lon="-0.3518">
        <ele>319.3</ele>
        <time>2012-07-10T14:41:56Z</time>
      </trkpt>
      <trkpt lat="43.26029" lon="-0.35181">
        <ele>319.3</ele>
        <time>2012-07-10T14:42:04Z</time>
      </trkpt>
      <trkpt lat="43.26015" lon="-0.35179">
        <ele>319.78</ele>
        <time>2012-07-10T14:42:13Z</time>
      </trkpt>
      <trkpt lat="43.26001" lon="-0.35183">
        <ele>320.26</ele>
        <time>2012-07-10T14:42:23Z</time>
      </trkpt>
      <trkpt lat="43.25993" lon="-0.35187">
        <ele>321.7</ele>
        <time>2012-07-10T14:42:32Z</time>
      </trkpt>
      <trkpt lat="43.25984" lon="-0.35191">
        <ele>322.66</ele>
        <time>2012-07-10T14:42:41Z</time>
      </trkpt>
      <trkpt lat="43.25975" lon="-0.35195">
        <ele>323.62</ele>
        <time>2012-07-10T14:42:51Z</time>
      </trkpt>
      <trkpt lat="43.25967" lon="-0.35201">
        <ele>324.58</ele>
        <time>2012-07-10T14:43:02Z</time>
      </trkpt>
      <trkpt lat="43.25963" lon="-0.35209">
        <ele>325.54</ele>
        <time>2012-07-10T14:43:11Z</time>
      </trkpt>
      <trkpt lat="43.25957" lon="-0.35211">
        <ele>323.62</ele>
        <time>2012-07-10T14:44:04Z</time>
      </trkpt>
      <trkpt lat="43.25929" lon="-0.35217">
        <ele>322.18</ele>
        <time>2012-07-10T14:44:32Z</time>
      </trkpt>
      <trkpt lat="43.25913" lon="-0.35215">
        <ele>322.18</ele>
        <time>2012-07-10T14:44:42Z</time>
      </trkpt>
      <trkpt lat="43.25905" lon="-0.35219">
        <ele>321.7</ele>
        <time>2012-07-10T14:45:36Z</time>
      </trkpt>
      <trkpt lat="43.25885" lon="-0.35233">
        <ele>321.22</ele>
        <time>2012-07-10T14:45:53Z</time>
      </trkpt>
      <trkpt lat="43.25867" lon="-0.35236">
        <ele>319.3</ele>
        <time>2012-07-10T14:46:07Z</time>
      </trkpt>
      <trkpt lat="43.25862" lon="-0.35247">
        <ele>318.33</ele>
        <time>2012-07-10T14:46:14Z</time>
      </trkpt>
      <trkpt lat="43.25864" lon="-0.3526">
        <ele>317.37</ele>
        <time>2012-07-10T14:46:22Z</time>
      </trkpt>
      <trkpt lat="43.25862" lon="-0.35266">
        <ele>316.89</ele>
        <time>2012-07-10T14:46:32Z</time>
      </trkpt>
      <trkpt lat="43.25876" lon="-0.35287">
        <ele>315.45</ele>
        <time>2012-07-10T14:46:48Z</time>
      </trkpt>
      <trkpt lat="43.25882" lon="-0.35296">
        <ele>315.45</ele>
        <time>2012-07-10T14:47:09Z</time>
      </trkpt>
      <trkpt lat="43.25889" lon="-0.35308">
        <ele>314.49</ele>
        <time>2012-07-10T14:47:23Z</time>
      </trkpt>
      <trkpt lat="43.25912" lon="-0.3532">
        <ele>314.49</ele>
        <time>2012-07-10T14:47:41Z</time>
      </trkpt>
      <trkpt lat="43.25925" lon="-0.35327">
        <ele>314.97</ele>
        <time>2012-07-10T14:47:47Z</time>
      </trkpt>
      <trkpt lat="43.25934" lon="-0.35336">
        <ele>314.97</ele>
        <time>2012-07-10T14:47:55Z</time>
      </trkpt>
      <trkpt lat="43.25939" lon="-0.35344">
        <ele>315.45</ele>
        <time>2012-07-10T14:48:05Z</time>
      </trkpt>
      <trkpt lat="43.25943" lon="-0.35354">
        <ele>315.93</ele>
        <time>2012-07-10T14:48:17Z</time>
      </trkpt>
      <trkpt lat="43.2595" lon="-0.35367">
        <ele>315.93</ele>
        <time>2012-07-10T14:48:26Z</time>
      </trkpt>
      <trkpt lat="43.25959" lon="-0.35378">
        <ele>316.41</ele>
        <time>2012-07-10T14:48:37Z</time>
      </trkpt>
      <trkpt lat="43.25967" lon="-0.35386">
        <ele>316.41</ele>
        <time>2012-07-10T14:48:48Z</time>
      </trkpt>
      <trkpt lat="43.25977" lon="-0.35391">
        <ele>315.93</ele>
        <time>2012-07-10T14:48:59Z</time>
      </trkpt>
      <trkpt lat="43.25986" lon="-0.35394">
        <ele>314.97</ele>
        <time>2012-07-10T14:49:10Z</time>
      </trkpt>
      <trkpt lat="43.25998" lon="-0.35407">
        <ele>313.53</ele>
        <time>2012-07-10T14:49:22Z</time>
      </trkpt>
      <trkpt lat="43.26009" lon="-0.35412">
        <ele>312.57</ele>
        <time>2012-07-10T14:49:32Z</time>
      </trkpt>
      <trkpt lat="43.26021" lon="-0.35414">
        <ele>311.6</ele>
        <time>2012-07-10T14:49:40Z</time>
      </trkpt>
      <trkpt lat="43.26031" lon="-0.3542">
        <ele>310.64</ele>
        <time>2012-07-10T14:49:50Z</time>
      </trkpt>
      <trkpt lat="43.26041" lon="-0.35425">
        <ele>310.16</ele>
        <time>2012-07-10T14:49:59Z</time>
      </trkpt>
      <trkpt lat="43.26051" lon="-0.35426">
        <ele>309.2</ele>
        <time>2012-07-10T14:50:06Z</time>
      </trkpt>
      <trkpt lat="43.26063" lon="-0.35428">
        <ele>308.72</ele>
        <time>2012-07-10T14:50:15Z</time>
      </trkpt>
      <trkpt lat="43.26072" lon="-0.35434">
        <ele>307.76</ele>
        <time>2012-07-10T14:50:24Z</time>
      </trkpt>
      <trkpt lat="43.26082" lon="-0.3544">
        <ele>307.28</ele>
        <time>2012-07-10T14:50:33Z</time>
      </trkpt>
      <trkpt lat="43.26091" lon="-0.35446">
        <ele>306.8</ele>
        <time>2012-07-10T14:50:43Z</time>
      </trkpt>
      <trkpt lat="43.26097" lon="-0.35457">
        <ele>306.32</ele>
        <time>2012-07-10T14:50:51Z</time>
      </trkpt>
      <trkpt lat="43.26101" lon="-0.3547">
        <ele>305.84</ele>
        <time>2012-07-10T14:51:00Z</time>
      </trkpt>
      <trkpt lat="43.26106" lon="-0.35483">
        <ele>305.36</ele>
        <time>2012-07-10T14:51:08Z</time>
      </trkpt>
      <trkpt lat="43.26112" lon="-0.35493">
        <ele>305.36</ele>
        <time>2012-07-10T14:51:17Z</time>
      </trkpt>
      <trkpt lat="43.26119" lon="-0.35501">
        <ele>304.39</ele>
        <time>2012-07-10T14:51:27Z</time>
      </trkpt>
      <trkpt lat="43.26126" lon="-0.35511">
        <ele>303.91</ele>
        <time>2012-07-10T14:51:35Z</time>
      </trkpt>
      <trkpt lat="43.26131" lon="-0.35521">
        <ele>302.95</ele>
        <time>2012-07-10T14:51:44Z</time>
      </trkpt>
      <trkpt lat="43.26139" lon="-0.35527">
        <ele>302.47</ele>
        <time>2012-07-10T14:51:53Z</time>
      </trkpt>
      <trkpt lat="43.26148" lon="-0.35531">
        <ele>301.51</ele>
        <time>2012-07-10T14:52:00Z</time>
      </trkpt>
      <trkpt lat="43.26157" lon="-0.35538">
        <ele>301.03</ele>
        <time>2012-07-10T14:52:10Z</time>
      </trkpt>
      <trkpt lat="43.26166" lon="-0.35543">
        <ele>300.55</ele>
        <time>2012-07-10T14:52:18Z</time>
      </trkpt>
      <trkpt lat="43.26173" lon="-0.35548">
        <ele>300.07</ele>
        <time>2012-07-10T14:52:29Z</time>
      </trkpt>
      <trkpt lat="43.26181" lon="-0.35558">
        <ele>300.55</ele>
        <time>2012-07-10T14:52:39Z</time>
      </trkpt>
      <trkpt lat="43.26191" lon="-0.35567">
        <ele>300.07</ele>
        <time>2012-07-10T14:52:49Z</time>
      </trkpt>
      <trkpt lat="43.26201" lon="-0.35577">
        <ele>300.55</ele>
        <time>2012-07-10T14:52:58Z</time>
      </trkpt>
      <trkpt lat="43.26208" lon="-0.35587">
        <ele>300.07</ele>
        <time>2012-07-10T14:53:07Z</time>
      </trkpt>
      <trkpt lat="43.26217" lon="-0.35595">
        <ele>300.07</ele>
        <time>2012-07-10T14:53:17Z</time>
      </trkpt>
      <trkpt lat="43.26223" lon="-0.35607">
        <ele>299.59</ele>
        <time>2012-07-10T14:53:27Z</time>
      </trkpt>
      <trkpt lat="43.2623" lon="-0.3562">
        <ele>300.07</ele>
        <time>2012-07-10T14:53:39Z</time>
      </trkpt>
      <trkpt lat="43.26236" lon="-0.3563">
        <ele>299.59</ele>
        <time>2012-07-10T14:53:47Z</time>
      </trkpt>
      <trkpt lat="43.26246" lon="-0.35647">
        <ele>300.07</ele>
        <time>2012-07-10T14:53:57Z</time>
      </trkpt>
      <trkpt lat="43.2625" lon="-0.35659">
        <ele>301.03</ele>
        <time>2012-07-10T14:54:06Z</time>
      </trkpt>
      <trkpt lat="43.26255" lon="-0.35669">
        <ele>301.51</ele>
        <time>2012-07-10T14:54:15Z</time>
      </trkpt>
      <trkpt lat="43.2626" lon="-0.35681">
        <ele>302.47</ele>
        <time>2012-07-10T14:54:26Z</time>
      </trkpt>
      <trkpt lat="43.26267" lon="-0.35691">
        <ele>302.95</ele>
        <time>2012-07-10T14:54:34Z</time>
      </trkpt>
      <trkpt lat="43.26273" lon="-0.357">
        <ele>303.91</ele>
        <time>2012-07-10T14:54:43Z</time>
      </trkpt>
      <trkpt lat="43.26278" lon="-0.35711">
        <ele>304.39</ele>
        <time>2012-07-10T14:54:52Z</time>
      </trkpt>
      <trkpt lat="43.26283" lon="-0.35722">
        <ele>305.36</ele>
        <time>2012-07-10T14:55:01Z</time>
      </trkpt>
      <trkpt lat="43.26287" lon="-0.35734">
        <ele>305.84</ele>
        <time>2012-07-10T14:55:10Z</time>
      </trkpt>
      <trkpt lat="43.2629" lon="-0.35746">
        <ele>306.32</ele>
        <time>2012-07-10T14:55:18Z</time>
      </trkpt>
      <trkpt lat="43.26297" lon="-0.35755">
        <ele>307.28</ele>
        <time>2012-07-10T14:55:27Z</time>
      </trkpt>
      <trkpt lat="43.26304" lon="-0.35763">
        <ele>307.76</ele>
        <time>2012-07-10T14:55:35Z</time>
      </trkpt>
      <trkpt lat="43.26312" lon="-0.3577">
        <ele>309.2</ele>
        <time>2012-07-10T14:55:44Z</time>
      </trkpt>
      <trkpt lat="43.26317" lon="-0.35781">
        <ele>310.16</ele>
        <time>2012-07-10T14:55:54Z</time>
      </trkpt>
      <trkpt lat="43.26325" lon="-0.35787">
        <ele>311.12</ele>
        <time>2012-07-10T14:56:04Z</time>
      </trkpt>
      <trkpt lat="43.26334" lon="-0.35792">
        <ele>312.09</ele>
        <time>2012-07-10T14:56:12Z</time>
      </trkpt>
      <trkpt lat="43.26341" lon="-0.35798">
        <ele>312.57</ele>
        <time>2012-07-10T14:56:20Z</time>
      </trkpt>
      <trkpt lat="43.26349" lon="-0.35805">
        <ele>314.01</ele>
        <time>2012-07-10T14:56:31Z</time>
      </trkpt>
      <trkpt lat="43.2636" lon="-0.3581">
        <ele>314.97</ele>
        <time>2012-07-10T14:56:40Z</time>
      </trkpt>
      <trkpt lat="43.26368" lon="-0.35817">
        <ele>314.97</ele>
        <time>2012-07-10T14:56:51Z</time>
      </trkpt>
      <trkpt lat="43.26379" lon="-0.35824">
        <ele>314.49</ele>
        <time>2012-07-10T14:57:00Z</time>
      </trkpt>
      <trkpt lat="43.26387" lon="-0.35828">
        <ele>314.49</ele>
        <time>2012-07-10T14:57:09Z</time>
      </trkpt>
      <trkpt lat="43.26398" lon="-0.35831">
        <ele>314.01</ele>
        <time>2012-07-10T14:57:20Z</time>
      </trkpt>
      <trkpt lat="43.26402" lon="-0.35842">
        <ele>314.01</ele>
        <time>2012-07-10T14:57:31Z</time>
      </trkpt>
      <trkpt lat="43.26413" lon="-0.35844">
        <ele>313.05</ele>
        <time>2012-07-10T14:57:39Z</time>
      </trkpt>
      <trkpt lat="43.26422" lon="-0.35847">
        <ele>313.05</ele>
        <time>2012-07-10T14:57:46Z</time>
      </trkpt>
      <trkpt lat="43.26442" lon="-0.35847">
        <ele>311.12</ele>
        <time>2012-07-10T14:57:56Z</time>
      </trkpt>
      <trkpt lat="43.2645" lon="-0.35853">
        <ele>310.16</ele>
        <time>2012-07-10T14:58:08Z</time>
      </trkpt>
      <trkpt lat="43.26455" lon="-0.35861">
        <ele>309.68</ele>
        <time>2012-07-10T14:58:19Z</time>
      </trkpt>
      <trkpt lat="43.26466" lon="-0.35867">
        <ele>308.24</ele>
        <time>2012-07-10T14:58:30Z</time>
      </trkpt>
      <trkpt lat="43.26474" lon="-0.35873">
        <ele>307.28</ele>
        <time>2012-07-10T14:58:38Z</time>
      </trkpt>
      <trkpt lat="43.26483" lon="-0.35877">
        <ele>307.28</ele>
        <time>2012-07-10T14:58:46Z</time>
      </trkpt>
      <trkpt lat="43.26492" lon="-0.35881">
        <ele>306.8</ele>
        <time>2012-07-10T14:58:54Z</time>
      </trkpt>
      <trkpt lat="43.265" lon="-0.35888">
        <ele>305.84</ele>
        <time>2012-07-10T14:59:01Z</time>
      </trkpt>
      <trkpt lat="43.26509" lon="-0.35894">
        <ele>304.88</ele>
        <time>2012-07-10T14:59:11Z</time>
      </trkpt>
      <trkpt lat="43.26521" lon="-0.35894">
        <ele>302.95</ele>
        <time>2012-07-10T14:59:21Z</time>
      </trkpt>
      <trkpt lat="43.26529" lon="-0.35899">
        <ele>302.47</ele>
        <time>2012-07-10T14:59:27Z</time>
      </trkpt>
      <trkpt lat="43.26537" lon="-0.35906">
        <ele>301.51</ele>
        <time>2012-07-10T14:59:35Z</time>
      </trkpt>
      <trkpt lat="43.26545" lon="-0.35913">
        <ele>301.03</ele>
        <time>2012-07-10T14:59:44Z</time>
      </trkpt>
      <trkpt lat="43.26553" lon="-0.3592">
        <ele>300.07</ele>
        <time>2012-07-10T14:59:52Z</time>
      </trkpt>
      <trkpt lat="43.26563" lon="-0.35926">
        <ele>299.59</ele>
        <time>2012-07-10T14:59:59Z</time>
      </trkpt>
      <trkpt lat="43.26575" lon="-0.35939">
        <ele>298.63</ele>
        <time>2012-07-10T15:00:09Z</time>
      </trkpt>
      <trkpt lat="43.26586" lon="-0.3595">
        <ele>297.67</ele>
        <time>2012-07-10T15:00:18Z</time>
      </trkpt>
      <trkpt lat="43.26594" lon="-0.35956">
        <ele>297.18</ele>
        <time>2012-07-10T15:00:28Z</time>
      </trkpt>
      <trkpt lat="43.266" lon="-0.35965">
        <ele>295.74</ele>
        <time>2012-07-10T15:00:39Z</time>
      </trkpt>
      <trkpt lat="43.2661" lon="-0.35969">
        <ele>295.26</ele>
        <time>2012-07-10T15:00:48Z</time>
      </trkpt>
      <trkpt lat="43.26618" lon="-0.35978">
        <ele>294.3</ele>
        <time>2012-07-10T15:00:59Z</time>
      </trkpt>
      <trkpt lat="43.26626" lon="-0.35984">
        <ele>294.3</ele>
        <time>2012-07-10T15:01:06Z</time>
      </trkpt>
      <trkpt lat="43.26635" lon="-0.35993">
        <ele>293.82</ele>
        <time>2012-07-10T15:01:14Z</time>
      </trkpt>
      <trkpt lat="43.26643" lon="-0.36004">
        <ele>293.82</ele>
        <time>2012-07-10T15:01:23Z</time>
      </trkpt>
      <trkpt lat="43.26653" lon="-0.36013">
        <ele>293.82</ele>
        <time>2012-07-10T15:01:32Z</time>
      </trkpt>
      <trkpt lat="43.26661" lon="-0.36021">
        <ele>293.34</ele>
        <time>2012-07-10T15:01:41Z</time>
      </trkpt>
      <trkpt lat="43.26669" lon="-0.3603">
        <ele>293.34</ele>
        <time>2012-07-10T15:01:51Z</time>
      </trkpt>
      <trkpt lat="43.26676" lon="-0.36038">
        <ele>292.86</ele>
        <time>2012-07-10T15:02:02Z</time>
      </trkpt>
      <trkpt lat="43.26685" lon="-0.36042">
        <ele>293.34</ele>
        <time>2012-07-10T15:02:10Z</time>
      </trkpt>
      <trkpt lat="43.26693" lon="-0.36048">
        <ele>293.34</ele>
        <time>2012-07-10T15:02:20Z</time>
      </trkpt>
      <trkpt lat="43.26701" lon="-0.36054">
        <ele>293.34</ele>
        <time>2012-07-10T15:02:30Z</time>
      </trkpt>
      <trkpt lat="43.26709" lon="-0.36063">
        <ele>293.34</ele>
        <time>2012-07-10T15:02:39Z</time>
      </trkpt>
      <trkpt lat="43.26716" lon="-0.36074">
        <ele>291.9</ele>
        <time>2012-07-10T15:02:48Z</time>
      </trkpt>
      <trkpt lat="43.26722" lon="-0.36084">
        <ele>291.42</ele>
        <time>2012-07-10T15:02:57Z</time>
      </trkpt>
      <trkpt lat="43.26732" lon="-0.36093">
        <ele>290.46</ele>
        <time>2012-07-10T15:03:07Z</time>
      </trkpt>
      <trkpt lat="43.26738" lon="-0.36102">
        <ele>290.46</ele>
        <time>2012-07-10T15:03:17Z</time>
      </trkpt>
      <trkpt lat="43.26749" lon="-0.36109">
        <ele>289.97</ele>
        <time>2012-07-10T15:03:27Z</time>
      </trkpt>
      <trkpt lat="43.26758" lon="-0.36116">
        <ele>289.97</ele>
        <time>2012-07-10T15:03:36Z</time>
      </trkpt>
      <trkpt lat="43.26766" lon="-0.36123">
        <ele>289.49</ele>
        <time>2012-07-10T15:03:44Z</time>
      </trkpt>
      <trkpt lat="43.26775" lon="-0.36128">
        <ele>289.49</ele>
        <time>2012-07-10T15:03:53Z</time>
      </trkpt>
      <trkpt lat="43.26786" lon="-0.3613">
        <ele>289.01</ele>
        <time>2012-07-10T15:04:03Z</time>
      </trkpt>
      <trkpt lat="43.26796" lon="-0.36132">
        <ele>289.01</ele>
        <time>2012-07-10T15:04:12Z</time>
      </trkpt>
      <trkpt lat="43.26804" lon="-0.36136">
        <ele>289.49</ele>
        <time>2012-07-10T15:04:35Z</time>
      </trkpt>
      <trkpt lat="43.26813" lon="-0.36139">
        <ele>289.01</ele>
        <time>2012-07-10T15:04:45Z</time>
      </trkpt>
      <trkpt lat="43.26822" lon="-0.36144">
        <ele>289.01</ele>
        <time>2012-07-10T15:04:53Z</time>
      </trkpt>
      <trkpt lat="43.26833" lon="-0.36149">
        <ele>289.01</ele>
        <time>2012-07-10T15:05:03Z</time>
      </trkpt>
      <trkpt lat="43.26843" lon="-0.36156">
        <ele>289.49</ele>
        <time>2012-07-10T15:05:13Z</time>
      </trkpt>
      <trkpt lat="43.26854" lon="-0.36163">
        <ele>289.49</ele>
        <time>2012-07-10T15:05:23Z</time>
      </trkpt>
      <trkpt lat="43.26861" lon="-0.36169">
        <ele>289.49</ele>
        <time>2012-07-10T15:05:37Z</time>
      </trkpt>
      <trkpt lat="43.2687" lon="-0.36178">
        <ele>289.01</ele>
        <time>2012-07-10T15:05:46Z</time>
      </trkpt>
      <trkpt lat="43.26877" lon="-0.36187">
        <ele>288.53</ele>
        <time>2012-07-10T15:05:56Z</time>
      </trkpt>
      <trkpt lat="43.26886" lon="-0.36195">
        <ele>287.57</ele>
        <time>2012-07-10T15:06:05Z</time>
      </trkpt>
      <trkpt lat="43.26894" lon="-0.36202">
        <ele>286.61</ele>
        <time>2012-07-10T15:06:14Z</time>
      </trkpt>
      <trkpt lat="43.269" lon="-0.3621">
        <ele>286.61</ele>
        <time>2012-07-10T15:06:23Z</time>
      </trkpt>
      <trkpt lat="43.26907" lon="-0.36222">
        <ele>285.17</ele>
        <time>2012-07-10T15:06:33Z</time>
      </trkpt>
      <trkpt lat="43.26917" lon="-0.36231">
        <ele>284.69</ele>
        <time>2012-07-10T15:06:42Z</time>
      </trkpt>
      <trkpt lat="43.26925" lon="-0.3624">
        <ele>284.21</ele>
        <time>2012-07-10T15:06:51Z</time>
      </trkpt>
      <trkpt lat="43.26937" lon="-0.36248">
        <ele>283.25</ele>
        <time>2012-07-10T15:07:00Z</time>
      </trkpt>
      <trkpt lat="43.26946" lon="-0.36254">
        <ele>282.77</ele>
        <time>2012-07-10T15:07:10Z</time>
      </trkpt>
      <trkpt lat="43.26955" lon="-0.36263">
        <ele>282.28</ele>
        <time>2012-07-10T15:07:19Z</time>
      </trkpt>
      <trkpt lat="43.26962" lon="-0.36272">
        <ele>281.32</ele>
        <time>2012-07-10T15:07:28Z</time>
      </trkpt>
      <trkpt lat="43.2697" lon="-0.36281">
        <ele>280.36</ele>
        <time>2012-07-10T15:07:37Z</time>
      </trkpt>
      <trkpt lat="43.26978" lon="-0.36291">
        <ele>279.88</ele>
        <time>2012-07-10T15:07:47Z</time>
      </trkpt>
      <trkpt lat="43.26985" lon="-0.36301">
        <ele>279.4</ele>
        <time>2012-07-10T15:07:56Z</time>
      </trkpt>
      <trkpt lat="43.26995" lon="-0.36308">
        <ele>279.4</ele>
        <time>2012-07-10T15:08:06Z</time>
      </trkpt>
      <trkpt lat="43.27005" lon="-0.36315">
        <ele>278.92</ele>
        <time>2012-07-10T15:08:15Z</time>
      </trkpt>
      <trkpt lat="43.27014" lon="-0.36325">
        <ele>278.92</ele>
        <time>2012-07-10T15:08:23Z</time>
      </trkpt>
      <trkpt lat="43.2702" lon="-0.36335">
        <ele>278.44</ele>
        <time>2012-07-10T15:08:31Z</time>
      </trkpt>
      <trkpt lat="43.27028" lon="-0.36341">
        <ele>278.44</ele>
        <time>2012-07-10T15:08:41Z</time>
      </trkpt>
      <trkpt lat="43.27035" lon="-0.3635">
        <ele>277.48</ele>
        <time>2012-07-10T15:08:49Z</time>
      </trkpt>
      <trkpt lat="43.27043" lon="-0.36357">
        <ele>277</ele>
        <time>2012-07-10T15:08:58Z</time>
      </trkpt>
      <trkpt lat="43.27051" lon="-0.36365">
        <ele>276.52</ele>
        <time>2012-07-10T15:09:07Z</time>
      </trkpt>
      <trkpt lat="43.2706" lon="-0.36368">
        <ele>276.04</ele>
        <time>2012-07-10T15:09:16Z</time>
      </trkpt>
      <trkpt lat="43.27068" lon="-0.36381">
        <ele>275.07</ele>
        <time>2012-07-10T15:09:26Z</time>
      </trkpt>
      <trkpt lat="43.27073" lon="-0.36394">
        <ele>275.07</ele>
        <time>2012-07-10T15:09:36Z</time>
      </trkpt>
      <trkpt lat="43.27082" lon="-0.36398">
        <ele>274.59</ele>
        <time>2012-07-10T15:09:45Z</time>
      </trkpt>
      <trkpt lat="43.27093" lon="-0.36411">
        <ele>274.59</ele>
        <time>2012-07-10T15:09:55Z</time>
      </trkpt>
      <trkpt lat="43.27102" lon="-0.36422">
        <ele>274.59</ele>
        <time>2012-07-10T15:10:04Z</time>
      </trkpt>
      <trkpt lat="43.27112" lon="-0.36427">
        <ele>274.59</ele>
        <time>2012-07-10T15:10:14Z</time>
      </trkpt>
      <trkpt lat="43.27121" lon="-0.36437">
        <ele>275.07</ele>
        <time>2012-07-10T15:10:24Z</time>
      </trkpt>
      <trkpt lat="43.27129" lon="-0.36447">
        <ele>274.59</ele>
        <time>2012-07-10T15:10:34Z</time>
      </trkpt>
      <trkpt lat="43.27138" lon="-0.36456">
        <ele>274.59</ele>
        <time>2012-07-10T15:10:43Z</time>
      </trkpt>
      <trkpt lat="43.27145" lon="-0.36469">
        <ele>274.59</ele>
        <time>2012-07-10T15:10:53Z</time>
      </trkpt>
      <trkpt lat="43.27151" lon="-0.36483">
        <ele>274.59</ele>
        <time>2012-07-10T15:11:04Z</time>
      </trkpt>
      <trkpt lat="43.27159" lon="-0.36489">
        <ele>273.63</ele>
        <time>2012-07-10T15:11:13Z</time>
      </trkpt>
      <trkpt lat="43.27169" lon="-0.365">
        <ele>273.63</ele>
        <time>2012-07-10T15:11:22Z</time>
      </trkpt>
      <trkpt lat="43.27177" lon="-0.36506">
        <ele>272.67</ele>
        <time>2012-07-10T15:11:31Z</time>
      </trkpt>
      <trkpt lat="43.27185" lon="-0.36515">
        <ele>272.67</ele>
        <time>2012-07-10T15:11:40Z</time>
      </trkpt>
      <trkpt lat="43.27194" lon="-0.36524">
        <ele>271.71</ele>
        <time>2012-07-10T15:11:50Z</time>
      </trkpt>
      <trkpt lat="43.27201" lon="-0.36533">
        <ele>270.75</ele>
        <time>2012-07-10T15:12:01Z</time>
      </trkpt>
      <trkpt lat="43.27212" lon="-0.3654">
        <ele>269.79</ele>
        <time>2012-07-10T15:12:11Z</time>
      </trkpt>
      <trkpt lat="43.27224" lon="-0.36541">
        <ele>269.31</ele>
        <time>2012-07-10T15:12:19Z</time>
      </trkpt>
      <trkpt lat="43.27234" lon="-0.36543">
        <ele>268.83</ele>
        <time>2012-07-10T15:12:25Z</time>
      </trkpt>
      <trkpt lat="43.27243" lon="-0.36542">
        <ele>268.35</ele>
        <time>2012-07-10T15:12:32Z</time>
      </trkpt>
      <trkpt lat="43.27252" lon="-0.36542">
        <ele>267.38</ele>
        <time>2012-07-10T15:12:39Z</time>
      </trkpt>
      <trkpt lat="43.27261" lon="-0.36542">
        <ele>266.9</ele>
        <time>2012-07-10T15:12:47Z</time>
      </trkpt>
      <trkpt lat="43.27271" lon="-0.36543">
        <ele>266.42</ele>
        <time>2012-07-10T15:12:57Z</time>
      </trkpt>
      <trkpt lat="43.2728" lon="-0.36542">
        <ele>265.94</ele>
        <time>2012-07-10T15:13:07Z</time>
      </trkpt>
      <trkpt lat="43.27291" lon="-0.36548">
        <ele>264.98</ele>
        <time>2012-07-10T15:13:16Z</time>
      </trkpt>
      <trkpt lat="43.27302" lon="-0.36553">
        <ele>264.98</ele>
        <time>2012-07-10T15:13:24Z</time>
      </trkpt>
      <trkpt lat="43.27313" lon="-0.36559">
        <ele>264.98</ele>
        <time>2012-07-10T15:13:33Z</time>
      </trkpt>
      <trkpt lat="43.2732" lon="-0.36567">
        <ele>264.98</ele>
        <time>2012-07-10T15:13:43Z</time>
      </trkpt>
      <trkpt lat="43.27326" lon="-0.36576">
        <ele>264.98</ele>
        <time>2012-07-10T15:13:57Z</time>
      </trkpt>
      <trkpt lat="43.27336" lon="-0.36588">
        <ele>264.98</ele>
        <time>2012-07-10T15:14:12Z</time>
      </trkpt>
      <trkpt lat="43.27354" lon="-0.36598">
        <ele>264.02</ele>
        <time>2012-07-10T15:14:21Z</time>
      </trkpt>
      <trkpt lat="43.27362" lon="-0.36609">
        <ele>264.02</ele>
        <time>2012-07-10T15:14:31Z</time>
      </trkpt>
      <trkpt lat="43.27369" lon="-0.36617">
        <ele>263.06</ele>
        <time>2012-07-10T15:14:39Z</time>
      </trkpt>
      <trkpt lat="43.27379" lon="-0.36623">
        <ele>262.58</ele>
        <time>2012-07-10T15:14:46Z</time>
      </trkpt>
      <trkpt lat="43.27388" lon="-0.36629">
        <ele>262.1</ele>
        <time>2012-07-10T15:15:04Z</time>
      </trkpt>
      <trkpt lat="43.27398" lon="-0.36635">
        <ele>261.62</ele>
        <time>2012-07-10T15:15:10Z</time>
      </trkpt>
      <trkpt lat="43.27412" lon="-0.36647">
        <ele>260.65</ele>
        <time>2012-07-10T15:15:19Z</time>
      </trkpt>
      <trkpt lat="43.2742" lon="-0.36653">
        <ele>259.69</ele>
        <time>2012-07-10T15:15:29Z</time>
      </trkpt>
      <trkpt lat="43.2743" lon="-0.36674">
        <ele>258.73</ele>
        <time>2012-07-10T15:15:40Z</time>
      </trkpt>
      <trkpt lat="43.27433" lon="-0.36685">
        <ele>257.29</ele>
        <time>2012-07-10T15:15:49Z</time>
      </trkpt>
      <trkpt lat="43.2744" lon="-0.36696">
        <ele>255.85</ele>
        <time>2012-07-10T15:15:59Z</time>
      </trkpt>
      <trkpt lat="43.27446" lon="-0.36707">
        <ele>254.89</ele>
        <time>2012-07-10T15:16:07Z</time>
      </trkpt>
      <trkpt lat="43.27457" lon="-0.36713">
        <ele>253.93</ele>
        <time>2012-07-10T15:16:15Z</time>
      </trkpt>
      <trkpt lat="43.27463" lon="-0.36714">
        <ele>252.96</ele>
        <time>2012-07-10T15:16:25Z</time>
      </trkpt>
      <trkpt lat="43.27464" lon="-0.36722">
        <ele>252</ele>
        <time>2012-07-10T15:16:36Z</time>
      </trkpt>
      <trkpt lat="43.27462" lon="-0.36751">
        <ele>250.08</ele>
        <time>2012-07-10T15:16:46Z</time>
      </trkpt>
      <trkpt lat="43.27467" lon="-0.3676">
        <ele>248.64</ele>
        <time>2012-07-10T15:16:56Z</time>
      </trkpt>
      <trkpt lat="43.27471" lon="-0.36778">
        <ele>246.72</ele>
        <time>2012-07-10T15:17:10Z</time>
      </trkpt>
      <trkpt lat="43.27476" lon="-0.36791">
        <ele>245.75</ele>
        <time>2012-07-10T15:17:18Z</time>
      </trkpt>
      <trkpt lat="43.27479" lon="-0.36808">
        <ele>245.27</ele>
        <time>2012-07-10T15:17:26Z</time>
      </trkpt>
      <trkpt lat="43.27484" lon="-0.3682">
        <ele>243.83</ele>
        <time>2012-07-10T15:17:35Z</time>
      </trkpt>
      <trkpt lat="43.27488" lon="-0.36833">
        <ele>242.87</ele>
        <time>2012-07-10T15:17:42Z</time>
      </trkpt>
      <trkpt lat="43.27492" lon="-0.36843">
        <ele>242.39</ele>
        <time>2012-07-10T15:17:49Z</time>
      </trkpt>
      <trkpt lat="43.275" lon="-0.36849">
        <ele>240.95</ele>
        <time>2012-07-10T15:17:58Z</time>
      </trkpt>
      <trkpt lat="43.27507" lon="-0.36857">
        <ele>240.47</ele>
        <time>2012-07-10T15:18:06Z</time>
      </trkpt>
      <trkpt lat="43.27515" lon="-0.36865">
        <ele>239.51</ele>
        <time>2012-07-10T15:18:14Z</time>
      </trkpt>
      <trkpt lat="43.27528" lon="-0.36867">
        <ele>239.02</ele>
        <time>2012-07-10T15:18:23Z</time>
      </trkpt>
      <trkpt lat="43.27539" lon="-0.36858">
        <ele>235.18</ele>
        <time>2012-07-10T15:19:11Z</time>
      </trkpt>
      <trkpt lat="43.27554" lon="-0.36839">
        <ele>234.22</ele>
        <time>2012-07-10T15:19:20Z</time>
      </trkpt>
      <trkpt lat="43.27564" lon="-0.36831">
        <ele>233.26</ele>
        <time>2012-07-10T15:19:27Z</time>
      </trkpt>
      <trkpt lat="43.27578" lon="-0.36823">
        <ele>232.78</ele>
        <time>2012-07-10T15:19:36Z</time>
      </trkpt>
      <trkpt lat="43.27586" lon="-0.36815">
        <ele>231.81</ele>
        <time>2012-07-10T15:19:46Z</time>
      </trkpt>
      <trkpt lat="43.27591" lon="-0.36804">
        <ele>229.89</ele>
        <time>2012-07-10T15:20:00Z</time>
      </trkpt>
      <trkpt lat="43.27601" lon="-0.36802">
        <ele>228.93</ele>
        <time>2012-07-10T15:20:12Z</time>
      </trkpt>
      <trkpt lat="43.2761" lon="-0.36804">
        <ele>227.49</ele>
        <time>2012-07-10T15:20:21Z</time>
      </trkpt>
      <trkpt lat="43.27638" lon="-0.36819">
        <ele>226.05</ele>
        <time>2012-07-10T15:20:33Z</time>
      </trkpt>
      <trkpt lat="43.27653" lon="-0.36827">
        <ele>225.09</ele>
        <time>2012-07-10T15:20:42Z</time>
      </trkpt>
      <trkpt lat="43.27653" lon="-0.36838">
        <ele>224.12</ele>
        <time>2012-07-10T15:20:51Z</time>
      </trkpt>
      <trkpt lat="43.27649" lon="-0.36851">
        <ele>224.12</ele>
        <time>2012-07-10T15:20:59Z</time>
      </trkpt>
      <trkpt lat="43.27652" lon="-0.36864">
        <ele>223.64</ele>
        <time>2012-07-10T15:21:07Z</time>
      </trkpt>
      <trkpt lat="43.27657" lon="-0.36875">
        <ele>223.16</ele>
        <time>2012-07-10T15:21:14Z</time>
      </trkpt>
      <trkpt lat="43.27663" lon="-0.36884">
        <ele>222.68</ele>
        <time>2012-07-10T15:21:22Z</time>
      </trkpt>
      <trkpt lat="43.27669" lon="-0.36893">
        <ele>222.68</ele>
        <time>2012-07-10T15:21:33Z</time>
      </trkpt>
      <trkpt lat="43.27671" lon="-0.36908">
        <ele>221.72</ele>
        <time>2012-07-10T15:21:42Z</time>
      </trkpt>
      <trkpt lat="43.27679" lon="-0.36919">
        <ele>220.28</ele>
        <time>2012-07-10T15:21:50Z</time>
      </trkpt>
      <trkpt lat="43.27685" lon="-0.36929">
        <ele>218.84</ele>
        <time>2012-07-10T15:22:01Z</time>
      </trkpt>
      <trkpt lat="43.27689" lon="-0.36947">
        <ele>217.88</ele>
        <time>2012-07-10T15:22:10Z</time>
      </trkpt>
      <trkpt lat="43.27693" lon="-0.3696">
        <ele>216.43</ele>
        <time>2012-07-10T15:22:46Z</time>
      </trkpt>
      <trkpt lat="43.27697" lon="-0.36976">
        <ele>215.47</ele>
        <time>2012-07-10T15:22:56Z</time>
      </trkpt>
      <trkpt lat="43.27701" lon="-0.36992">
        <ele>214.51</ele>
        <time>2012-07-10T15:23:06Z</time>
      </trkpt>
      <trkpt lat="43.27708" lon="-0.37003">
        <ele>214.03</ele>
        <time>2012-07-10T15:23:16Z</time>
      </trkpt>
      <trkpt lat="43.27714" lon="-0.37017">
        <ele>213.55</ele>
        <time>2012-07-10T15:23:25Z</time>
      </trkpt>
      <trkpt lat="43.27723" lon="-0.37029">
        <ele>212.11</ele>
        <time>2012-07-10T15:23:36Z</time>
      </trkpt>
      <trkpt lat="43.27728" lon="-0.37041">
        <ele>211.15</ele>
        <time>2012-07-10T15:23:44Z</time>
      </trkpt>
      <trkpt lat="43.27736" lon="-0.3705">
        <ele>210.67</ele>
        <time>2012-07-10T15:23:53Z</time>
      </trkpt>
      <trkpt lat="43.27747" lon="-0.3706">
        <ele>210.19</ele>
        <time>2012-07-10T15:24:02Z</time>
      </trkpt>
      <trkpt lat="43.27751" lon="-0.37076">
        <ele>209.7</ele>
        <time>2012-07-10T15:24:10Z</time>
      </trkpt>
      <trkpt lat="43.27755" lon="-0.37087">
        <ele>209.22</ele>
        <time>2012-07-10T15:24:18Z</time>
      </trkpt>
      <trkpt lat="43.27758" lon="-0.37098">
        <ele>208.74</ele>
        <time>2012-07-10T15:24:29Z</time>
      </trkpt>
      <trkpt lat="43.27762" lon="-0.37113">
        <ele>208.74</ele>
        <time>2012-07-10T15:24:36Z</time>
      </trkpt>
      <trkpt lat="43.27763" lon="-0.37125">
        <ele>207.3</ele>
        <time>2012-07-10T15:24:45Z</time>
      </trkpt>
      <trkpt lat="43.27765" lon="-0.37138">
        <ele>206.82</ele>
        <time>2012-07-10T15:24:55Z</time>
      </trkpt>
      <trkpt lat="43.2777" lon="-0.37152">
        <ele>206.82</ele>
        <time>2012-07-10T15:25:04Z</time>
      </trkpt>
      <trkpt lat="43.27776" lon="-0.3717">
        <ele>205.38</ele>
        <time>2012-07-10T15:25:15Z</time>
      </trkpt>
      <trkpt lat="43.27779" lon="-0.37183">
        <ele>204.42</ele>
        <time>2012-07-10T15:25:25Z</time>
      </trkpt>
      <trkpt lat="43.27782" lon="-0.37196">
        <ele>204.42</ele>
        <time>2012-07-10T15:25:33Z</time>
      </trkpt>
      <trkpt lat="43.27786" lon="-0.37208">
        <ele>203.94</ele>
        <time>2012-07-10T15:25:41Z</time>
      </trkpt>
      <trkpt lat="43.2779" lon="-0.37221">
        <ele>203.46</ele>
        <time>2012-07-10T15:25:48Z</time>
      </trkpt>
      <trkpt lat="43.27793" lon="-0.37233">
        <ele>202.98</ele>
        <time>2012-07-10T15:25:55Z</time>
      </trkpt>
      <trkpt lat="43.27796" lon="-0.37246">
        <ele>202.49</ele>
        <time>2012-07-10T15:26:03Z</time>
      </trkpt>
      <trkpt lat="43.27798" lon="-0.37262">
        <ele>202.01</ele>
        <time>2012-07-10T15:26:39Z</time>
      </trkpt>
      <trkpt lat="43.278" lon="-0.37273">
        <ele>202.01</ele>
        <time>2012-07-10T15:26:55Z</time>
      </trkpt>
      <trkpt lat="43.27796" lon="-0.37284">
        <ele>201.53</ele>
        <time>2012-07-10T15:27:06Z</time>
      </trkpt>
      <trkpt lat="43.27791" lon="-0.37295">
        <ele>201.05</ele>
        <time>2012-07-10T15:27:16Z</time>
      </trkpt>
      <trkpt lat="43.27787" lon="-0.37306">
        <ele>200.09</ele>
        <time>2012-07-10T15:27:24Z</time>
      </trkpt>
      <trkpt lat="43.27783" lon="-0.37318">
        <ele>200.09</ele>
        <time>2012-07-10T15:27:32Z</time>
      </trkpt>
      <trkpt lat="43.2778" lon="-0.3733">
        <ele>199.13</ele>
        <time>2012-07-10T15:27:43Z</time>
      </trkpt>
      <trkpt lat="43.27779" lon="-0.37346">
        <ele>198.17</ele>
        <time>2012-07-10T15:27:52Z</time>
      </trkpt>
      <trkpt lat="43.27779" lon="-0.3736">
        <ele>197.21</ele>
        <time>2012-07-10T15:28:01Z</time>
      </trkpt>
      <trkpt lat="43.2778" lon="-0.37373">
        <ele>196.73</ele>
        <time>2012-07-10T15:28:09Z</time>
      </trkpt>
      <trkpt lat="43.27787" lon="-0.37386">
        <ele>195.77</ele>
        <time>2012-07-10T15:28:17Z</time>
      </trkpt>
      <trkpt lat="43.27797" lon="-0.37397">
        <ele>194.8</ele>
        <time>2012-07-10T15:28:26Z</time>
      </trkpt>
      <trkpt lat="43.27803" lon="-0.37406">
        <ele>193.36</ele>
        <time>2012-07-10T15:28:35Z</time>
      </trkpt>
      <trkpt lat="43.27809" lon="-0.37418">
        <ele>192.4</ele>
        <time>2012-07-10T15:28:45Z</time>
      </trkpt>
      <trkpt lat="43.27813" lon="-0.3743">
        <ele>191.44</ele>
        <time>2012-07-10T15:28:53Z</time>
      </trkpt>
      <trkpt lat="43.27818" lon="-0.3744">
        <ele>189.52</ele>
        <time>2012-07-10T15:29:05Z</time>
      </trkpt>
      <trkpt lat="43.27824" lon="-0.37451">
        <ele>188.56</ele>
        <time>2012-07-10T15:29:14Z</time>
      </trkpt>
      <trkpt lat="43.27834" lon="-0.3746">
        <ele>187.11</ele>
        <time>2012-07-10T15:29:23Z</time>
      </trkpt>
      <trkpt lat="43.27841" lon="-0.37468">
        <ele>186.15</ele>
        <time>2012-07-10T15:29:33Z</time>
      </trkpt>
      <trkpt lat="43.27846" lon="-0.3748">
        <ele>184.71</ele>
        <time>2012-07-10T15:29:41Z</time>
      </trkpt>
      <trkpt lat="43.27855" lon="-0.37483">
        <ele>183.75</ele>
        <time>2012-07-10T15:29:50Z</time>
      </trkpt>
      <trkpt lat="43.27864" lon="-0.37495">
        <ele>182.31</ele>
        <time>2012-07-10T15:29:59Z</time>
      </trkpt>
      <trkpt lat="43.27869" lon="-0.37512">
        <ele>180.87</ele>
        <time>2012-07-10T15:30:09Z</time>
      </trkpt>
      <trkpt lat="43.27875" lon="-0.3753">
        <ele>179.42</ele>
        <time>2012-07-10T15:30:17Z</time>
      </trkpt>
      <trkpt lat="43.2788" lon="-0.37545">
        <ele>177.98</ele>
        <time>2012-07-10T15:30:27Z</time>
      </trkpt>
      <trkpt lat="43.27888" lon="-0.37547">
        <ele>177.5</ele>
        <time>2012-07-10T15:31:06Z</time>
      </trkpt>
      <trkpt lat="43.27896" lon="-0.37542">
        <ele>177.02</ele>
        <time>2012-07-10T15:31:16Z</time>
      </trkpt>
      <trkpt lat="43.27909" lon="-0.3753">
        <ele>176.06</ele>
        <time>2012-07-10T15:31:24Z</time>
      </trkpt>
      <trkpt lat="43.27921" lon="-0.37525">
        <ele>175.58</ele>
        <time>2012-07-10T15:31:32Z</time>
      </trkpt>
      <trkpt lat="43.27932" lon="-0.37529">
        <ele>175.58</ele>
        <time>2012-07-10T15:31:41Z</time>
      </trkpt>
      <trkpt lat="43.27939" lon="-0.37539">
        <ele>175.58</ele>
        <time>2012-07-10T15:31:51Z</time>
      </trkpt>
      <trkpt lat="43.27946" lon="-0.37553">
        <ele>175.1</ele>
        <time>2012-07-10T15:32:00Z</time>
      </trkpt>
      <trkpt lat="43.27954" lon="-0.3756">
        <ele>174.62</ele>
        <time>2012-07-10T15:32:10Z</time>
      </trkpt>
      <trkpt lat="43.27961" lon="-0.3757">
        <ele>175.1</ele>
        <time>2012-07-10T15:32:19Z</time>
      </trkpt>
      <trkpt lat="43.27969" lon="-0.37576">
        <ele>174.62</ele>
        <time>2012-07-10T15:32:29Z</time>
      </trkpt>
      <trkpt lat="43.27982" lon="-0.37577">
        <ele>174.62</ele>
        <time>2012-07-10T15:32:38Z</time>
      </trkpt>
      <trkpt lat="43.27994" lon="-0.37581">
        <ele>174.62</ele>
        <time>2012-07-10T15:32:48Z</time>
      </trkpt>
      <trkpt lat="43.28005" lon="-0.37583">
        <ele>174.14</ele>
        <time>2012-07-10T15:32:55Z</time>
      </trkpt>
      <trkpt lat="43.28012" lon="-0.3759">
        <ele>173.66</ele>
        <time>2012-07-10T15:33:05Z</time>
      </trkpt>
      <trkpt lat="43.28022" lon="-0.37595">
        <ele>174.14</ele>
        <time>2012-07-10T15:33:14Z</time>
      </trkpt>
      <trkpt lat="43.28032" lon="-0.37599">
        <ele>174.14</ele>
        <time>2012-07-10T15:33:25Z</time>
      </trkpt>
      <trkpt lat="43.28043" lon="-0.37603">
        <ele>174.14</ele>
        <time>2012-07-10T15:33:35Z</time>
      </trkpt>
      <trkpt lat="43.28052" lon="-0.37608">
        <ele>174.14</ele>
        <time>2012-07-10T15:33:46Z</time>
      </trkpt>
      <trkpt lat="43.28061" lon="-0.37611">
        <ele>174.62</ele>
        <time>2012-07-10T15:33:55Z</time>
      </trkpt>
      <trkpt lat="43.28075" lon="-0.37617">
        <ele>174.62</ele>
        <time>2012-07-10T15:34:05Z</time>
      </trkpt>
      <trkpt lat="43.28085" lon="-0.37617">
        <ele>174.14</ele>
        <time>2012-07-10T15:34:15Z</time>
      </trkpt>
      <trkpt lat="43.28094" lon="-0.37619">
        <ele>174.62</ele>
        <time>2012-07-10T15:34:26Z</time>
      </trkpt>
      <trkpt lat="43.28102" lon="-0.37623">
        <ele>174.14</ele>
        <time>2012-07-10T15:34:38Z</time>
      </trkpt>
      <trkpt lat="43.28116" lon="-0.3763">
        <ele>174.14</ele>
        <time>2012-07-10T15:34:46Z</time>
      </trkpt>
      <trkpt lat="43.28125" lon="-0.37634">
        <ele>174.14</ele>
        <time>2012-07-10T15:34:54Z</time>
      </trkpt>
      <trkpt lat="43.28135" lon="-0.37634">
        <ele>174.62</ele>
        <time>2012-07-10T15:35:02Z</time>
      </trkpt>
      <trkpt lat="43.28139" lon="-0.37628">
        <ele>174.62</ele>
        <time>2012-07-10T15:37:41Z</time>
      </trkpt>
      <trkpt lat="43.28143" lon="-0.37633">
        <ele>174.62</ele>
        <time>2012-07-10T15:38:49Z</time>
      </trkpt>
      <trkpt lat="43.28151" lon="-0.3764">
        <ele>174.14</ele>
        <time>2012-07-10T15:38:58Z</time>
      </trkpt>
      <trkpt lat="43.28164" lon="-0.37644">
        <ele>174.14</ele>
        <time>2012-07-10T15:39:07Z</time>
      </trkpt>
      <trkpt lat="43.28173" lon="-0.37648">
        <ele>174.62</ele>
        <time>2012-07-10T15:39:16Z</time>
      </trkpt>
      <trkpt lat="43.28182" lon="-0.37654">
        <ele>174.62</ele>
        <time>2012-07-10T15:39:27Z</time>
      </trkpt>
      <trkpt lat="43.28191" lon="-0.37658">
        <ele>174.14</ele>
        <time>2012-07-10T15:39:37Z</time>
      </trkpt>
      <trkpt lat="43.28203" lon="-0.37661">
        <ele>174.62</ele>
        <time>2012-07-10T15:39:46Z</time>
      </trkpt>
      <trkpt lat="43.28215" lon="-0.37661">
        <ele>174.62</ele>
        <time>2012-07-10T15:39:56Z</time>
      </trkpt>
      <trkpt lat="43.28225" lon="-0.37664">
        <ele>174.62</ele>
        <time>2012-07-10T15:40:06Z</time>
      </trkpt>
      <trkpt lat="43.28235" lon="-0.3767">
        <ele>174.14</ele>
        <time>2012-07-10T15:40:15Z</time>
      </trkpt>
      <trkpt lat="43.28246" lon="-0.37675">
        <ele>174.14</ele>
        <time>2012-07-10T15:40:25Z</time>
      </trkpt>
      <trkpt lat="43.28255" lon="-0.3768">
        <ele>174.62</ele>
        <time>2012-07-10T15:40:34Z</time>
      </trkpt>
      <trkpt lat="43.28267" lon="-0.37684">
        <ele>174.62</ele>
        <time>2012-07-10T15:40:44Z</time>
      </trkpt>
      <trkpt lat="43.28276" lon="-0.37689">
        <ele>174.14</ele>
        <time>2012-07-10T15:40:54Z</time>
      </trkpt>
      <trkpt lat="43.28288" lon="-0.37693">
        <ele>174.14</ele>
        <time>2012-07-10T15:41:03Z</time>
      </trkpt>
      <trkpt lat="43.28297" lon="-0.37698">
        <ele>174.14</ele>
        <time>2012-07-10T15:41:12Z</time>
      </trkpt>
      <trkpt lat="43.28307" lon="-0.37702">
        <ele>173.66</ele>
        <time>2012-07-10T15:41:22Z</time>
      </trkpt>
      <trkpt lat="43.28318" lon="-0.37704">
        <ele>174.14</ele>
        <time>2012-07-10T15:41:32Z</time>
      </trkpt>
      <trkpt lat="43.28328" lon="-0.37704">
        <ele>174.14</ele>
        <time>2012-07-10T15:41:42Z</time>
      </trkpt>
      <trkpt lat="43.28337" lon="-0.37701">
        <ele>174.62</ele>
        <time>2012-07-10T15:41:50Z</time>
      </trkpt>
      <trkpt lat="43.28347" lon="-0.37705">
        <ele>174.14</ele>
        <time>2012-07-10T15:42:02Z</time>
      </trkpt>
      <trkpt lat="43.28357" lon="-0.37713">
        <ele>174.14</ele>
        <time>2012-07-10T15:42:09Z</time>
      </trkpt>
      <trkpt lat="43.28368" lon="-0.37721">
        <ele>174.14</ele>
        <time>2012-07-10T15:42:19Z</time>
      </trkpt>
      <trkpt lat="43.28379" lon="-0.37727">
        <ele>174.14</ele>
        <time>2012-07-10T15:42:29Z</time>
      </trkpt>
      <trkpt lat="43.28389" lon="-0.37729">
        <ele>174.14</ele>
        <time>2012-07-10T15:42:38Z</time>
      </trkpt>
      <trkpt lat="43.28403" lon="-0.3773">
        <ele>174.14</ele>
        <time>2012-07-10T15:42:48Z</time>
      </trkpt>
      <trkpt lat="43.28413" lon="-0.37735">
        <ele>173.66</ele>
        <time>2012-07-10T15:42:58Z</time>
      </trkpt>
      <trkpt lat="43.28422" lon="-0.37742">
        <ele>174.14</ele>
        <time>2012-07-10T15:43:09Z</time>
      </trkpt>
      <trkpt lat="43.28432" lon="-0.37747">
        <ele>174.14</ele>
        <time>2012-07-10T15:43:19Z</time>
      </trkpt>
      <trkpt lat="43.28441" lon="-0.37749">
        <ele>173.66</ele>
        <time>2012-07-10T15:43:28Z</time>
      </trkpt>
      <trkpt lat="43.28453" lon="-0.37754">
        <ele>174.14</ele>
        <time>2012-07-10T15:43:39Z</time>
      </trkpt>
      <trkpt lat="43.28459" lon="-0.37764">
        <ele>174.14</ele>
        <time>2012-07-10T15:43:46Z</time>
      </trkpt>
      <trkpt lat="43.28465" lon="-0.37775">
        <ele>174.14</ele>
        <time>2012-07-10T15:43:57Z</time>
      </trkpt>
      <trkpt lat="43.28469" lon="-0.37788">
        <ele>173.66</ele>
        <time>2012-07-10T15:44:06Z</time>
      </trkpt>
      <trkpt lat="43.28475" lon="-0.37798">
        <ele>173.17</ele>
        <time>2012-07-10T15:44:13Z</time>
      </trkpt>
      <trkpt lat="43.28482" lon="-0.37808">
        <ele>173.17</ele>
        <time>2012-07-10T15:44:22Z</time>
      </trkpt>
      <trkpt lat="43.28491" lon="-0.37812">
        <ele>173.17</ele>
        <time>2012-07-10T15:44:32Z</time>
      </trkpt>
      <trkpt lat="43.28497" lon="-0.37821">
        <ele>172.69</ele>
        <time>2012-07-10T15:44:46Z</time>
      </trkpt>
      <trkpt lat="43.28506" lon="-0.37829">
        <ele>173.17</ele>
        <time>2012-07-10T15:44:57Z</time>
      </trkpt>
      <trkpt lat="43.28511" lon="-0.37838">
        <ele>173.17</ele>
        <time>2012-07-10T15:45:07Z</time>
      </trkpt>
      <trkpt lat="43.28519" lon="-0.37846">
        <ele>172.69</ele>
        <time>2012-07-10T15:45:17Z</time>
      </trkpt>
      <trkpt lat="43.28526" lon="-0.37853">
        <ele>172.21</ele>
        <time>2012-07-10T15:45:26Z</time>
      </trkpt>
      <trkpt lat="43.28534" lon="-0.3786">
        <ele>173.17</ele>
        <time>2012-07-10T15:45:40Z</time>
      </trkpt>
      <trkpt lat="43.28542" lon="-0.37874">
        <ele>172.69</ele>
        <time>2012-07-10T15:45:50Z</time>
      </trkpt>
      <trkpt lat="43.28553" lon="-0.37886">
        <ele>173.17</ele>
        <time>2012-07-10T15:45:59Z</time>
      </trkpt>
      <trkpt lat="43.28563" lon="-0.379">
        <ele>173.17</ele>
        <time>2012-07-10T15:46:09Z</time>
      </trkpt>
      <trkpt lat="43.28572" lon="-0.37911">
        <ele>173.17</ele>
        <time>2012-07-10T15:46:17Z</time>
      </trkpt>
      <trkpt lat="43.28579" lon="-0.37919">
        <ele>173.17</ele>
        <time>2012-07-10T15:46:28Z</time>
      </trkpt>
      <trkpt lat="43.28587" lon="-0.37928">
        <ele>172.69</ele>
        <time>2012-07-10T15:46:37Z</time>
      </trkpt>
      <trkpt lat="43.28596" lon="-0.37934">
        <ele>172.21</ele>
        <time>2012-07-10T15:46:45Z</time>
      </trkpt>
      <trkpt lat="43.28603" lon="-0.37944">
        <ele>172.21</ele>
        <time>2012-07-10T15:46:52Z</time>
      </trkpt>
      <trkpt lat="43.28612" lon="-0.37954">
        <ele>171.73</ele>
        <time>2012-07-10T15:47:00Z</time>
      </trkpt>
      <trkpt lat="43.2862" lon="-0.37965">
        <ele>171.73</ele>
        <time>2012-07-10T15:47:09Z</time>
      </trkpt>
      <trkpt lat="43.28629" lon="-0.37967">
        <ele>171.25</ele>
        <time>2012-07-10T15:47:23Z</time>
      </trkpt>
      <trkpt lat="43.28636" lon="-0.37977">
        <ele>170.77</ele>
        <time>2012-07-10T15:47:35Z</time>
      </trkpt>
      <trkpt lat="43.28646" lon="-0.37979">
        <ele>170.77</ele>
        <time>2012-07-10T15:47:46Z</time>
      </trkpt>
      <trkpt lat="43.28655" lon="-0.37983">
        <ele>170.29</ele>
        <time>2012-07-10T15:47:58Z</time>
      </trkpt>
      <trkpt lat="43.28666" lon="-0.37988">
        <ele>170.77</ele>
        <time>2012-07-10T15:48:06Z</time>
      </trkpt>
      <trkpt lat="43.28679" lon="-0.37996">
        <ele>170.29</ele>
        <time>2012-07-10T15:48:16Z</time>
      </trkpt>
      <trkpt lat="43.28671" lon="-0.38032">
        <ele>170.29</ele>
        <time>2012-07-10T15:48:25Z</time>
      </trkpt>
      <trkpt lat="43.2869" lon="-0.38049">
        <ele>169.81</ele>
        <time>2012-07-10T15:48:35Z</time>
      </trkpt>
      <trkpt lat="43.28698" lon="-0.38061">
        <ele>170.29</ele>
        <time>2012-07-10T15:48:45Z</time>
      </trkpt>
      <trkpt lat="43.28701" lon="-0.38073">
        <ele>170.29</ele>
        <time>2012-07-10T15:48:53Z</time>
      </trkpt>
      <trkpt lat="43.28703" lon="-0.38086">
        <ele>169.81</ele>
        <time>2012-07-10T15:49:48Z</time>
      </trkpt>
      <trkpt lat="43.28701" lon="-0.38094">
        <ele>169.33</ele>
        <time>2012-07-10T15:49:57Z</time>
      </trkpt>
      <trkpt lat="43.28692" lon="-0.38099">
        <ele>169.81</ele>
        <time>2012-07-10T15:50:07Z</time>
      </trkpt>
      <trkpt lat="43.28685" lon="-0.38109">
        <ele>169.33</ele>
        <time>2012-07-10T15:50:17Z</time>
      </trkpt>
      <trkpt lat="43.28677" lon="-0.38118">
        <ele>169.81</ele>
        <time>2012-07-10T15:50:27Z</time>
      </trkpt>
      <trkpt lat="43.28673" lon="-0.38129">
        <ele>170.29</ele>
        <time>2012-07-10T15:50:37Z</time>
      </trkpt>
      <trkpt lat="43.28666" lon="-0.38144">
        <ele>169.81</ele>
        <time>2012-07-10T15:50:46Z</time>
      </trkpt>
      <trkpt lat="43.2866" lon="-0.38158">
        <ele>170.29</ele>
        <time>2012-07-10T15:50:57Z</time>
      </trkpt>
      <trkpt lat="43.28665" lon="-0.38184">
        <ele>170.29</ele>
        <time>2012-07-10T15:51:06Z</time>
      </trkpt>
      <trkpt lat="43.28672" lon="-0.38197">
        <ele>169.81</ele>
        <time>2012-07-10T15:51:15Z</time>
      </trkpt>
      <trkpt lat="43.2868" lon="-0.38208">
        <ele>170.29</ele>
        <time>2012-07-10T15:51:25Z</time>
      </trkpt>
      <trkpt lat="43.28685" lon="-0.38223">
        <ele>169.81</ele>
        <time>2012-07-10T15:51:35Z</time>
      </trkpt>
      <trkpt lat="43.2869" lon="-0.38236">
        <ele>169.81</ele>
        <time>2012-07-10T15:51:45Z</time>
      </trkpt>
      <trkpt lat="43.28694" lon="-0.38249">
        <ele>169.81</ele>
        <time>2012-07-10T15:51:55Z</time>
      </trkpt>
      <trkpt lat="43.28697" lon="-0.38265">
        <ele>169.81</ele>
        <time>2012-07-10T15:52:05Z</time>
      </trkpt>
      <trkpt lat="43.28703" lon="-0.38279">
        <ele>169.81</ele>
        <time>2012-07-10T15:52:15Z</time>
      </trkpt>
      <trkpt lat="43.2871" lon="-0.38291">
        <ele>169.81</ele>
        <time>2012-07-10T15:52:25Z</time>
      </trkpt>
      <trkpt lat="43.28714" lon="-0.38305">
        <ele>169.81</ele>
        <time>2012-07-10T15:52:35Z</time>
      </trkpt>
      <trkpt lat="43.28719" lon="-0.3832">
        <ele>169.81</ele>
        <time>2012-07-10T15:52:45Z</time>
      </trkpt>
      <trkpt lat="43.28725" lon="-0.38335">
        <ele>169.81</ele>
        <time>2012-07-10T15:52:56Z</time>
      </trkpt>
      <trkpt lat="43.28728" lon="-0.3835">
        <ele>169.33</ele>
        <time>2012-07-10T15:53:06Z</time>
      </trkpt>
      <trkpt lat="43.28737" lon="-0.38362">
        <ele>169.33</ele>
        <time>2012-07-10T15:53:16Z</time>
      </trkpt>
      <trkpt lat="43.2875" lon="-0.38355">
        <ele>169.33</ele>
        <time>2012-07-10T15:53:25Z</time>
      </trkpt>
      <trkpt lat="43.28758" lon="-0.3834">
        <ele>169.33</ele>
        <time>2012-07-10T15:53:35Z</time>
      </trkpt>
      <trkpt lat="43.28764" lon="-0.38332">
        <ele>169.81</ele>
        <time>2012-07-10T15:53:45Z</time>
      </trkpt>
      <trkpt lat="43.28775" lon="-0.38324">
        <ele>169.81</ele>
        <time>2012-07-10T15:53:55Z</time>
      </trkpt>
      <trkpt lat="43.2879" lon="-0.38318">
        <ele>169.33</ele>
        <time>2012-07-10T15:54:05Z</time>
      </trkpt>
      <trkpt lat="43.288" lon="-0.38312">
        <ele>169.33</ele>
        <time>2012-07-10T15:54:14Z</time>
      </trkpt>
      <trkpt lat="43.28808" lon="-0.38298">
        <ele>169.33</ele>
        <time>2012-07-10T15:54:25Z</time>
      </trkpt>
      <trkpt lat="43.28816" lon="-0.38287">
        <ele>169.33</ele>
        <time>2012-07-10T15:54:36Z</time>
      </trkpt>
      <trkpt lat="43.28823" lon="-0.38279">
        <ele>169.33</ele>
        <time>2012-07-10T15:54:45Z</time>
      </trkpt>
      <trkpt lat="43.2883" lon="-0.3827">
        <ele>168.85</ele>
        <time>2012-07-10T15:54:56Z</time>
      </trkpt>
      <trkpt lat="43.28841" lon="-0.38268">
        <ele>169.33</ele>
        <time>2012-07-10T15:55:05Z</time>
      </trkpt>
      <trkpt lat="43.28846" lon="-0.38278">
        <ele>169.33</ele>
        <time>2012-07-10T15:55:15Z</time>
      </trkpt>
      <trkpt lat="43.28851" lon="-0.3829">
        <ele>168.85</ele>
        <time>2012-07-10T15:55:24Z</time>
      </trkpt>
      <trkpt lat="43.28854" lon="-0.38301">
        <ele>168.85</ele>
        <time>2012-07-10T15:55:33Z</time>
      </trkpt>
      <trkpt lat="43.28861" lon="-0.38312">
        <ele>168.85</ele>
        <time>2012-07-10T15:55:41Z</time>
      </trkpt>
      <trkpt lat="43.28869" lon="-0.38321">
        <ele>168.85</ele>
        <time>2012-07-10T15:55:50Z</time>
      </trkpt>
      <trkpt lat="43.28875" lon="-0.38332">
        <ele>168.85</ele>
        <time>2012-07-10T15:55:59Z</time>
      </trkpt>
      <trkpt lat="43.2888" lon="-0.38345">
        <ele>168.37</ele>
        <time>2012-07-10T15:56:09Z</time>
      </trkpt>
      <trkpt lat="43.28886" lon="-0.38357">
        <ele>168.37</ele>
        <time>2012-07-10T15:56:18Z</time>
      </trkpt>
      <trkpt lat="43.28895" lon="-0.38372">
        <ele>167.89</ele>
        <time>2012-07-10T15:56:28Z</time>
      </trkpt>
      <trkpt lat="43.28902" lon="-0.38386">
        <ele>168.37</ele>
        <time>2012-07-10T15:56:38Z</time>
      </trkpt>
      <trkpt lat="43.28911" lon="-0.38399">
        <ele>168.37</ele>
        <time>2012-07-10T15:56:48Z</time>
      </trkpt>
      <trkpt lat="43.28921" lon="-0.38409">
        <ele>167.41</ele>
        <time>2012-07-10T15:56:57Z</time>
      </trkpt>
      <trkpt lat="43.28927" lon="-0.38423">
        <ele>168.37</ele>
        <time>2012-07-10T15:57:07Z</time>
      </trkpt>
      <trkpt lat="43.28934" lon="-0.38432">
        <ele>167.89</ele>
        <time>2012-07-10T15:57:17Z</time>
      </trkpt>
      <trkpt lat="43.28944" lon="-0.38433">
        <ele>167.89</ele>
        <time>2012-07-10T15:57:26Z</time>
      </trkpt>
      <trkpt lat="43.28956" lon="-0.38417">
        <ele>167.89</ele>
        <time>2012-07-10T15:57:36Z</time>
      </trkpt>
      <trkpt lat="43.28965" lon="-0.38408">
        <ele>169.33</ele>
        <time>2012-07-10T15:57:45Z</time>
      </trkpt>
      <trkpt lat="43.28972" lon="-0.384">
        <ele>167.89</ele>
        <time>2012-07-10T15:57:52Z</time>
      </trkpt>
      <trkpt lat="43.28979" lon="-0.38393">
        <ele>168.37</ele>
        <time>2012-07-10T15:58:00Z</time>
      </trkpt>
      <trkpt lat="43.28984" lon="-0.38389">
        <ele>167.41</ele>
        <time>2012-07-10T15:59:16Z</time>
      </trkpt>
    </trkseg>
  </trk>
</gpx>